<?xml version="1.0" encoding="UTF-8" standalone="no" ?>
<gpx xmlns="http://www.topografix.com/GPX/1/1" xmlns:xsi="http://www.w3.org/2001/XMLSchema-instance" xsi:schemaLocation="http://www.topografix.com/GPX/1/1 http://www.topografix.com/GPX/1/1/gpx.xsd" version="1.1" creator="VisuGPX - https://www.visugpx.com">
  <metadata>
    <name>Les collines de Vernon</name>
    <desc><![CDATA[Les collines de Vernonnet en VTT, ou en rando pédestre pour les plus courageux.]]></desc>
  </metadata>
  <trk>
    <name><![CDATA[Les collines de Vernon-14-06-2017]]></name>
    <trkseg>
      <trkpt lat="49.09673" lon="1.49137">
        <ele>-10.92</ele>
        <time>2017-06-14T12:49:04Z</time>
      </trkpt>
      <trkpt lat="49.09671" lon="1.49142">
        <ele>0.62</ele>
        <time>2017-06-14T12:49:05Z</time>
      </trkpt>
      <trkpt lat="49.0967" lon="1.49144">
        <ele>-3.71</ele>
        <time>2017-06-14T12:49:06Z</time>
      </trkpt>
      <trkpt lat="49.09669" lon="1.49146">
        <ele>-10.44</ele>
        <time>2017-06-14T12:49:08Z</time>
      </trkpt>
      <trkpt lat="49.09669" lon="1.49147">
        <ele>2.06</ele>
        <time>2017-06-14T12:49:09Z</time>
      </trkpt>
      <trkpt lat="49.09668" lon="1.49147">
        <ele>-4.19</ele>
        <time>2017-06-14T12:49:10Z</time>
      </trkpt>
      <trkpt lat="49.09666" lon="1.49148">
        <ele>-10.92</ele>
        <time>2017-06-14T12:49:14Z</time>
      </trkpt>
      <trkpt lat="49.09665" lon="1.49148">
        <ele>2.06</ele>
        <time>2017-06-14T12:49:15Z</time>
      </trkpt>
      <trkpt lat="49.09665" lon="1.49149">
        <ele>-3.71</ele>
        <time>2017-06-14T12:49:16Z</time>
      </trkpt>
      <trkpt lat="49.09662" lon="1.4915">
        <ele>-4.19</ele>
        <time>2017-06-14T12:49:18Z</time>
      </trkpt>
      <trkpt lat="49.0966" lon="1.49153">
        <ele>-2.75</ele>
        <time>2017-06-14T12:49:36Z</time>
      </trkpt>
      <trkpt lat="49.09679" lon="1.49197">
        <ele>-2.75</ele>
        <time>2017-06-14T12:49:51Z</time>
      </trkpt>
      <trkpt lat="49.09691" lon="1.49252">
        <ele>-1.79</ele>
        <time>2017-06-14T12:50:06Z</time>
      </trkpt>
      <trkpt lat="49.09693" lon="1.4925">
        <ele>-1.79</ele>
        <time>2017-06-14T12:50:08Z</time>
      </trkpt>
      <trkpt lat="49.09695" lon="1.49247">
        <ele>-1.3</ele>
        <time>2017-06-14T12:50:09Z</time>
      </trkpt>
      <trkpt lat="49.09736" lon="1.49208">
        <ele>-1.3</ele>
        <time>2017-06-14T12:50:23Z</time>
      </trkpt>
      <trkpt lat="49.09739" lon="1.49203">
        <ele>-0.82</ele>
        <time>2017-06-14T12:50:24Z</time>
      </trkpt>
      <trkpt lat="49.09742" lon="1.49201">
        <ele>-0.82</ele>
        <time>2017-06-14T12:50:25Z</time>
      </trkpt>
      <trkpt lat="49.09744" lon="1.492">
        <ele>-0.82</ele>
        <time>2017-06-14T12:50:26Z</time>
      </trkpt>
      <trkpt lat="49.09745" lon="1.49201">
        <ele>-1.3</ele>
        <time>2017-06-14T12:50:27Z</time>
      </trkpt>
      <trkpt lat="49.09747" lon="1.49202">
        <ele>-0.34</ele>
        <time>2017-06-14T12:50:28Z</time>
      </trkpt>
      <trkpt lat="49.09749" lon="1.49204">
        <ele>-0.82</ele>
        <time>2017-06-14T12:50:29Z</time>
      </trkpt>
      <trkpt lat="49.09752" lon="1.49206">
        <ele>-0.34</ele>
        <time>2017-06-14T12:50:30Z</time>
      </trkpt>
      <trkpt lat="49.09754" lon="1.49207">
        <ele>-0.34</ele>
        <time>2017-06-14T12:50:31Z</time>
      </trkpt>
      <trkpt lat="49.09761" lon="1.49208">
        <ele>-0.34</ele>
        <time>2017-06-14T12:50:38Z</time>
      </trkpt>
      <trkpt lat="49.09763" lon="1.4921">
        <ele>-0.34</ele>
        <time>2017-06-14T12:50:39Z</time>
      </trkpt>
      <trkpt lat="49.09786" lon="1.49258">
        <ele>1.1</ele>
        <time>2017-06-14T12:50:54Z</time>
      </trkpt>
      <trkpt lat="49.0982" lon="1.49311">
        <ele>3.02</ele>
        <time>2017-06-14T12:51:09Z</time>
      </trkpt>
      <trkpt lat="49.09836" lon="1.49365">
        <ele>4.46</ele>
        <time>2017-06-14T12:51:23Z</time>
      </trkpt>
      <trkpt lat="49.09848" lon="1.49408">
        <ele>3.5</ele>
        <time>2017-06-14T12:51:34Z</time>
      </trkpt>
      <trkpt lat="49.09852" lon="1.49459">
        <ele>6.39</ele>
        <time>2017-06-14T12:51:47Z</time>
      </trkpt>
      <trkpt lat="49.09851" lon="1.49527">
        <ele>7.83</ele>
        <time>2017-06-14T12:52:03Z</time>
      </trkpt>
      <trkpt lat="49.09852" lon="1.49603">
        <ele>9.75</ele>
        <time>2017-06-14T12:52:18Z</time>
      </trkpt>
      <trkpt lat="49.0985" lon="1.49672">
        <ele>11.19</ele>
        <time>2017-06-14T12:52:32Z</time>
      </trkpt>
      <trkpt lat="49.09851" lon="1.49749">
        <ele>12.63</ele>
        <time>2017-06-14T12:52:47Z</time>
      </trkpt>
      <trkpt lat="49.09863" lon="1.49816">
        <ele>14.08</ele>
        <time>2017-06-14T12:53:01Z</time>
      </trkpt>
      <trkpt lat="49.09884" lon="1.49877">
        <ele>15.04</ele>
        <time>2017-06-14T12:53:16Z</time>
      </trkpt>
      <trkpt lat="49.09903" lon="1.49924">
        <ele>15.52</ele>
        <time>2017-06-14T12:53:28Z</time>
      </trkpt>
      <trkpt lat="49.09918" lon="1.49987">
        <ele>17.44</ele>
        <time>2017-06-14T12:53:43Z</time>
      </trkpt>
      <trkpt lat="49.09936" lon="1.50027">
        <ele>18.88</ele>
        <time>2017-06-14T12:53:54Z</time>
      </trkpt>
      <trkpt lat="49.09958" lon="1.50064">
        <ele>19.84</ele>
        <time>2017-06-14T12:54:04Z</time>
      </trkpt>
      <trkpt lat="49.09974" lon="1.50086">
        <ele>22.73</ele>
        <time>2017-06-14T12:54:15Z</time>
      </trkpt>
      <trkpt lat="49.09977" lon="1.50088">
        <ele>23.69</ele>
        <time>2017-06-14T12:54:17Z</time>
      </trkpt>
      <trkpt lat="49.09978" lon="1.5009">
        <ele>23.69</ele>
        <time>2017-06-14T12:54:18Z</time>
      </trkpt>
      <trkpt lat="49.0998" lon="1.50092">
        <ele>23.69</ele>
        <time>2017-06-14T12:54:19Z</time>
      </trkpt>
      <trkpt lat="49.09997" lon="1.50128">
        <ele>27.05</ele>
        <time>2017-06-14T12:54:30Z</time>
      </trkpt>
      <trkpt lat="49.09998" lon="1.50154">
        <ele>28.98</ele>
        <time>2017-06-14T12:54:40Z</time>
      </trkpt>
      <trkpt lat="49.09997" lon="1.50157">
        <ele>29.94</ele>
        <time>2017-06-14T12:54:41Z</time>
      </trkpt>
      <trkpt lat="49.09997" lon="1.5016">
        <ele>29.46</ele>
        <time>2017-06-14T12:54:42Z</time>
      </trkpt>
      <trkpt lat="49.09997" lon="1.50163">
        <ele>30.42</ele>
        <time>2017-06-14T12:54:43Z</time>
      </trkpt>
      <trkpt lat="49.09998" lon="1.50166">
        <ele>30.42</ele>
        <time>2017-06-14T12:54:44Z</time>
      </trkpt>
      <trkpt lat="49.09994" lon="1.50202">
        <ele>33.78</ele>
        <time>2017-06-14T12:54:50Z</time>
      </trkpt>
      <trkpt lat="49.09994" lon="1.50212">
        <ele>35.23</ele>
        <time>2017-06-14T12:54:53Z</time>
      </trkpt>
      <trkpt lat="49.09994" lon="1.5022">
        <ele>36.67</ele>
        <time>2017-06-14T12:54:56Z</time>
      </trkpt>
      <trkpt lat="49.09994" lon="1.50223">
        <ele>37.15</ele>
        <time>2017-06-14T12:54:57Z</time>
      </trkpt>
      <trkpt lat="49.09994" lon="1.50227">
        <ele>37.63</ele>
        <time>2017-06-14T12:54:58Z</time>
      </trkpt>
      <trkpt lat="49.1" lon="1.50247">
        <ele>40.03</ele>
        <time>2017-06-14T12:55:04Z</time>
      </trkpt>
      <trkpt lat="49.10006" lon="1.50261">
        <ele>42.44</ele>
        <time>2017-06-14T12:55:08Z</time>
      </trkpt>
      <trkpt lat="49.10017" lon="1.50282">
        <ele>45.8</ele>
        <time>2017-06-14T12:55:15Z</time>
      </trkpt>
      <trkpt lat="49.10018" lon="1.50285">
        <ele>45.8</ele>
        <time>2017-06-14T12:55:16Z</time>
      </trkpt>
      <trkpt lat="49.10027" lon="1.50311">
        <ele>49.16</ele>
        <time>2017-06-14T12:55:23Z</time>
      </trkpt>
      <trkpt lat="49.10028" lon="1.50319">
        <ele>50.13</ele>
        <time>2017-06-14T12:55:25Z</time>
      </trkpt>
      <trkpt lat="49.10028" lon="1.50332">
        <ele>52.05</ele>
        <time>2017-06-14T12:55:28Z</time>
      </trkpt>
      <trkpt lat="49.10027" lon="1.50336">
        <ele>51.57</ele>
        <time>2017-06-14T12:55:29Z</time>
      </trkpt>
      <trkpt lat="49.10027" lon="1.50339">
        <ele>52.53</ele>
        <time>2017-06-14T12:55:30Z</time>
      </trkpt>
      <trkpt lat="49.10027" lon="1.50342">
        <ele>53.01</ele>
        <time>2017-06-14T12:55:31Z</time>
      </trkpt>
      <trkpt lat="49.10028" lon="1.50348">
        <ele>53.01</ele>
        <time>2017-06-14T12:55:33Z</time>
      </trkpt>
      <trkpt lat="49.1003" lon="1.50351">
        <ele>53.01</ele>
        <time>2017-06-14T12:55:34Z</time>
      </trkpt>
      <trkpt lat="49.10032" lon="1.50353">
        <ele>52.53</ele>
        <time>2017-06-14T12:55:35Z</time>
      </trkpt>
      <trkpt lat="49.10034" lon="1.50353">
        <ele>53.01</ele>
        <time>2017-06-14T12:55:36Z</time>
      </trkpt>
      <trkpt lat="49.10037" lon="1.50353">
        <ele>52.53</ele>
        <time>2017-06-14T12:55:37Z</time>
      </trkpt>
      <trkpt lat="49.10074" lon="1.50355">
        <ele>53.49</ele>
        <time>2017-06-14T12:55:49Z</time>
      </trkpt>
      <trkpt lat="49.10107" lon="1.50344">
        <ele>55.41</ele>
        <time>2017-06-14T12:56:00Z</time>
      </trkpt>
      <trkpt lat="49.10134" lon="1.50315">
        <ele>56.86</ele>
        <time>2017-06-14T12:56:11Z</time>
      </trkpt>
      <trkpt lat="49.10135" lon="1.5031">
        <ele>57.34</ele>
        <time>2017-06-14T12:56:12Z</time>
      </trkpt>
      <trkpt lat="49.10134" lon="1.50305">
        <ele>57.34</ele>
        <time>2017-06-14T12:56:13Z</time>
      </trkpt>
      <trkpt lat="49.10133" lon="1.50301">
        <ele>57.82</ele>
        <time>2017-06-14T12:56:14Z</time>
      </trkpt>
      <trkpt lat="49.10132" lon="1.50297">
        <ele>57.34</ele>
        <time>2017-06-14T12:56:15Z</time>
      </trkpt>
      <trkpt lat="49.10131" lon="1.50293">
        <ele>57.34</ele>
        <time>2017-06-14T12:56:16Z</time>
      </trkpt>
      <trkpt lat="49.10127" lon="1.50241">
        <ele>58.78</ele>
        <time>2017-06-14T12:56:27Z</time>
      </trkpt>
      <trkpt lat="49.10124" lon="1.50199">
        <ele>58.78</ele>
        <time>2017-06-14T12:56:34Z</time>
      </trkpt>
      <trkpt lat="49.10123" lon="1.50192">
        <ele>58.78</ele>
        <time>2017-06-14T12:56:35Z</time>
      </trkpt>
      <trkpt lat="49.10111" lon="1.50133">
        <ele>58.3</ele>
        <time>2017-06-14T12:56:46Z</time>
      </trkpt>
      <trkpt lat="49.10101" lon="1.50078">
        <ele>59.26</ele>
        <time>2017-06-14T12:56:57Z</time>
      </trkpt>
      <trkpt lat="49.10091" lon="1.5005">
        <ele>60.22</ele>
        <time>2017-06-14T12:57:06Z</time>
      </trkpt>
      <trkpt lat="49.10068" lon="1.50015">
        <ele>62.62</ele>
        <time>2017-06-14T12:57:17Z</time>
      </trkpt>
      <trkpt lat="49.10061" lon="1.50001">
        <ele>62.62</ele>
        <time>2017-06-14T12:57:21Z</time>
      </trkpt>
      <trkpt lat="49.10059" lon="1.49997">
        <ele>63.1</ele>
        <time>2017-06-14T12:57:22Z</time>
      </trkpt>
      <trkpt lat="49.10056" lon="1.49994">
        <ele>63.1</ele>
        <time>2017-06-14T12:57:23Z</time>
      </trkpt>
      <trkpt lat="49.10034" lon="1.49946">
        <ele>63.1</ele>
        <time>2017-06-14T12:57:35Z</time>
      </trkpt>
      <trkpt lat="49.10032" lon="1.49942">
        <ele>63.1</ele>
        <time>2017-06-14T12:57:36Z</time>
      </trkpt>
      <trkpt lat="49.1003" lon="1.49938">
        <ele>63.58</ele>
        <time>2017-06-14T12:57:37Z</time>
      </trkpt>
      <trkpt lat="49.10017" lon="1.49899">
        <ele>64.55</ele>
        <time>2017-06-14T12:57:46Z</time>
      </trkpt>
      <trkpt lat="49.10012" lon="1.49879">
        <ele>65.51</ele>
        <time>2017-06-14T12:57:51Z</time>
      </trkpt>
      <trkpt lat="49.10005" lon="1.49827">
        <ele>66.47</ele>
        <time>2017-06-14T12:58:02Z</time>
      </trkpt>
      <trkpt lat="49.10006" lon="1.49817">
        <ele>66.95</ele>
        <time>2017-06-14T12:58:04Z</time>
      </trkpt>
      <trkpt lat="49.10007" lon="1.49812">
        <ele>67.43</ele>
        <time>2017-06-14T12:58:05Z</time>
      </trkpt>
      <trkpt lat="49.10007" lon="1.49807">
        <ele>66.95</ele>
        <time>2017-06-14T12:58:06Z</time>
      </trkpt>
      <trkpt lat="49.10017" lon="1.49739">
        <ele>66.95</ele>
        <time>2017-06-14T12:58:20Z</time>
      </trkpt>
      <trkpt lat="49.10022" lon="1.49678">
        <ele>67.91</ele>
        <time>2017-06-14T12:58:32Z</time>
      </trkpt>
      <trkpt lat="49.10038" lon="1.49616">
        <ele>69.83</ele>
        <time>2017-06-14T12:58:46Z</time>
      </trkpt>
      <trkpt lat="49.10055" lon="1.49566">
        <ele>69.83</ele>
        <time>2017-06-14T12:58:58Z</time>
      </trkpt>
      <trkpt lat="49.10058" lon="1.49552">
        <ele>69.35</ele>
        <time>2017-06-14T12:59:01Z</time>
      </trkpt>
      <trkpt lat="49.10069" lon="1.49511">
        <ele>71.27</ele>
        <time>2017-06-14T12:59:12Z</time>
      </trkpt>
      <trkpt lat="49.1008" lon="1.49468">
        <ele>73.68</ele>
        <time>2017-06-14T12:59:24Z</time>
      </trkpt>
      <trkpt lat="49.10089" lon="1.49421">
        <ele>74.64</ele>
        <time>2017-06-14T12:59:35Z</time>
      </trkpt>
      <trkpt lat="49.10091" lon="1.49417">
        <ele>75.12</ele>
        <time>2017-06-14T12:59:36Z</time>
      </trkpt>
      <trkpt lat="49.10092" lon="1.49414">
        <ele>75.6</ele>
        <time>2017-06-14T12:59:37Z</time>
      </trkpt>
      <trkpt lat="49.10097" lon="1.49404">
        <ele>75.6</ele>
        <time>2017-06-14T12:59:40Z</time>
      </trkpt>
      <trkpt lat="49.10099" lon="1.49391">
        <ele>76.08</ele>
        <time>2017-06-14T12:59:43Z</time>
      </trkpt>
      <trkpt lat="49.101" lon="1.49386">
        <ele>76.08</ele>
        <time>2017-06-14T12:59:44Z</time>
      </trkpt>
      <trkpt lat="49.10101" lon="1.49381">
        <ele>76.56</ele>
        <time>2017-06-14T12:59:45Z</time>
      </trkpt>
      <trkpt lat="49.1012" lon="1.49322">
        <ele>76.08</ele>
        <time>2017-06-14T12:59:57Z</time>
      </trkpt>
      <trkpt lat="49.10136" lon="1.49265">
        <ele>76.56</ele>
        <time>2017-06-14T13:00:10Z</time>
      </trkpt>
      <trkpt lat="49.1015" lon="1.49222">
        <ele>77.52</ele>
        <time>2017-06-14T13:00:21Z</time>
      </trkpt>
      <trkpt lat="49.10168" lon="1.49179">
        <ele>78.48</ele>
        <time>2017-06-14T13:00:33Z</time>
      </trkpt>
      <trkpt lat="49.10174" lon="1.49164">
        <ele>78.48</ele>
        <time>2017-06-14T13:00:38Z</time>
      </trkpt>
      <trkpt lat="49.10175" lon="1.49161">
        <ele>77.52</ele>
        <time>2017-06-14T13:00:39Z</time>
      </trkpt>
      <trkpt lat="49.10176" lon="1.49158">
        <ele>79.93</ele>
        <time>2017-06-14T13:00:40Z</time>
      </trkpt>
      <trkpt lat="49.10177" lon="1.49155">
        <ele>78</ele>
        <time>2017-06-14T13:00:41Z</time>
      </trkpt>
      <trkpt lat="49.10178" lon="1.49153">
        <ele>78.97</ele>
        <time>2017-06-14T13:00:42Z</time>
      </trkpt>
      <trkpt lat="49.10201" lon="1.49116">
        <ele>79.45</ele>
        <time>2017-06-14T13:00:54Z</time>
      </trkpt>
      <trkpt lat="49.10203" lon="1.49114">
        <ele>79.45</ele>
        <time>2017-06-14T13:00:55Z</time>
      </trkpt>
      <trkpt lat="49.10235" lon="1.49089">
        <ele>80.41</ele>
        <time>2017-06-14T13:01:07Z</time>
      </trkpt>
      <trkpt lat="49.10245" lon="1.49072">
        <ele>80.89</ele>
        <time>2017-06-14T13:01:19Z</time>
      </trkpt>
      <trkpt lat="49.103" lon="1.49065">
        <ele>80.89</ele>
        <time>2017-06-14T13:01:32Z</time>
      </trkpt>
      <trkpt lat="49.10347" lon="1.49062">
        <ele>81.85</ele>
        <time>2017-06-14T13:01:43Z</time>
      </trkpt>
      <trkpt lat="49.10382" lon="1.49072">
        <ele>78.97</ele>
        <time>2017-06-14T13:01:55Z</time>
      </trkpt>
      <trkpt lat="49.10386" lon="1.49072">
        <ele>78.97</ele>
        <time>2017-06-14T13:01:56Z</time>
      </trkpt>
      <trkpt lat="49.10389" lon="1.4907">
        <ele>78.97</ele>
        <time>2017-06-14T13:01:57Z</time>
      </trkpt>
      <trkpt lat="49.10411" lon="1.49054">
        <ele>75.12</ele>
        <time>2017-06-14T13:02:04Z</time>
      </trkpt>
      <trkpt lat="49.1045" lon="1.49035">
        <ele>72.24</ele>
        <time>2017-06-14T13:02:14Z</time>
      </trkpt>
      <trkpt lat="49.10476" lon="1.49023">
        <ele>70.31</ele>
        <time>2017-06-14T13:02:23Z</time>
      </trkpt>
      <trkpt lat="49.10481" lon="1.4902">
        <ele>68.87</ele>
        <time>2017-06-14T13:02:25Z</time>
      </trkpt>
      <trkpt lat="49.10512" lon="1.49007">
        <ele>66.47</ele>
        <time>2017-06-14T13:02:34Z</time>
      </trkpt>
      <trkpt lat="49.10539" lon="1.49">
        <ele>62.62</ele>
        <time>2017-06-14T13:02:42Z</time>
      </trkpt>
      <trkpt lat="49.10569" lon="1.48994">
        <ele>60.22</ele>
        <time>2017-06-14T13:02:52Z</time>
      </trkpt>
      <trkpt lat="49.10581" lon="1.48991">
        <ele>58.3</ele>
        <time>2017-06-14T13:02:59Z</time>
      </trkpt>
      <trkpt lat="49.10582" lon="1.48989">
        <ele>60.7</ele>
        <time>2017-06-14T13:03:00Z</time>
      </trkpt>
      <trkpt lat="49.10583" lon="1.48986">
        <ele>53.97</ele>
        <time>2017-06-14T13:03:04Z</time>
      </trkpt>
      <trkpt lat="49.10583" lon="1.48985">
        <ele>63.1</ele>
        <time>2017-06-14T13:03:05Z</time>
      </trkpt>
      <trkpt lat="49.10583" lon="1.48985">
        <ele>58.3</ele>
        <time>2017-06-14T13:03:06Z</time>
      </trkpt>
      <trkpt lat="49.10585" lon="1.48985">
        <ele>57.82</ele>
        <time>2017-06-14T13:03:12Z</time>
      </trkpt>
      <trkpt lat="49.10586" lon="1.48985">
        <ele>63.1</ele>
        <time>2017-06-14T13:03:14Z</time>
      </trkpt>
      <trkpt lat="49.10586" lon="1.48985">
        <ele>59.74</ele>
        <time>2017-06-14T13:03:15Z</time>
      </trkpt>
      <trkpt lat="49.10587" lon="1.48985">
        <ele>58.3</ele>
        <time>2017-06-14T13:03:19Z</time>
      </trkpt>
      <trkpt lat="49.10587" lon="1.48985">
        <ele>62.14</ele>
        <time>2017-06-14T13:03:20Z</time>
      </trkpt>
      <trkpt lat="49.10587" lon="1.48985">
        <ele>59.26</ele>
        <time>2017-06-14T13:03:21Z</time>
      </trkpt>
      <trkpt lat="49.1059" lon="1.48988">
        <ele>59.74</ele>
        <time>2017-06-14T13:03:44Z</time>
      </trkpt>
      <trkpt lat="49.1059" lon="1.48993">
        <ele>60.22</ele>
        <time>2017-06-14T13:03:57Z</time>
      </trkpt>
      <trkpt lat="49.10586" lon="1.48995">
        <ele>61.18</ele>
        <time>2017-06-14T13:04:15Z</time>
      </trkpt>
      <trkpt lat="49.10588" lon="1.48998">
        <ele>61.66</ele>
        <time>2017-06-14T13:04:21Z</time>
      </trkpt>
      <trkpt lat="49.1059" lon="1.48999">
        <ele>62.14</ele>
        <time>2017-06-14T13:04:22Z</time>
      </trkpt>
      <trkpt lat="49.10602" lon="1.49006">
        <ele>65.03</ele>
        <time>2017-06-14T13:04:29Z</time>
      </trkpt>
      <trkpt lat="49.1064" lon="1.49012">
        <ele>65.51</ele>
        <time>2017-06-14T13:04:43Z</time>
      </trkpt>
      <trkpt lat="49.10649" lon="1.49014">
        <ele>64.07</ele>
        <time>2017-06-14T13:04:46Z</time>
      </trkpt>
      <trkpt lat="49.10672" lon="1.49016">
        <ele>61.18</ele>
        <time>2017-06-14T13:04:55Z</time>
      </trkpt>
      <trkpt lat="49.10684" lon="1.49017">
        <ele>59.74</ele>
        <time>2017-06-14T13:04:59Z</time>
      </trkpt>
      <trkpt lat="49.10691" lon="1.49017">
        <ele>58.3</ele>
        <time>2017-06-14T13:05:01Z</time>
      </trkpt>
      <trkpt lat="49.10735" lon="1.49021">
        <ele>55.41</ele>
        <time>2017-06-14T13:05:14Z</time>
      </trkpt>
      <trkpt lat="49.10769" lon="1.49018">
        <ele>51.57</ele>
        <time>2017-06-14T13:05:22Z</time>
      </trkpt>
      <trkpt lat="49.108" lon="1.49015">
        <ele>48.2</ele>
        <time>2017-06-14T13:05:31Z</time>
      </trkpt>
      <trkpt lat="49.10821" lon="1.49015">
        <ele>44.84</ele>
        <time>2017-06-14T13:05:38Z</time>
      </trkpt>
      <trkpt lat="49.10843" lon="1.49016">
        <ele>40.99</ele>
        <time>2017-06-14T13:05:44Z</time>
      </trkpt>
      <trkpt lat="49.10851" lon="1.49018">
        <ele>40.03</ele>
        <time>2017-06-14T13:05:46Z</time>
      </trkpt>
      <trkpt lat="49.10862" lon="1.49016">
        <ele>37.15</ele>
        <time>2017-06-14T13:05:50Z</time>
      </trkpt>
      <trkpt lat="49.10882" lon="1.49015">
        <ele>34.26</ele>
        <time>2017-06-14T13:05:58Z</time>
      </trkpt>
      <trkpt lat="49.109" lon="1.49019">
        <ele>31.86</ele>
        <time>2017-06-14T13:06:05Z</time>
      </trkpt>
      <trkpt lat="49.1091" lon="1.49024">
        <ele>30.42</ele>
        <time>2017-06-14T13:06:08Z</time>
      </trkpt>
      <trkpt lat="49.10934" lon="1.49043">
        <ele>28.98</ele>
        <time>2017-06-14T13:06:19Z</time>
      </trkpt>
      <trkpt lat="49.10939" lon="1.49046">
        <ele>29.46</ele>
        <time>2017-06-14T13:06:20Z</time>
      </trkpt>
      <trkpt lat="49.1094" lon="1.49048">
        <ele>28.98</ele>
        <time>2017-06-14T13:06:21Z</time>
      </trkpt>
      <trkpt lat="49.10942" lon="1.4905">
        <ele>28.5</ele>
        <time>2017-06-14T13:06:22Z</time>
      </trkpt>
      <trkpt lat="49.10944" lon="1.49052">
        <ele>28.98</ele>
        <time>2017-06-14T13:06:23Z</time>
      </trkpt>
      <trkpt lat="49.10945" lon="1.49054">
        <ele>28.5</ele>
        <time>2017-06-14T13:06:24Z</time>
      </trkpt>
      <trkpt lat="49.10972" lon="1.49051">
        <ele>28.02</ele>
        <time>2017-06-14T13:06:37Z</time>
      </trkpt>
      <trkpt lat="49.10991" lon="1.49048">
        <ele>28.02</ele>
        <time>2017-06-14T13:06:57Z</time>
      </trkpt>
      <trkpt lat="49.1099" lon="1.49045">
        <ele>27.53</ele>
        <time>2017-06-14T13:06:59Z</time>
      </trkpt>
      <trkpt lat="49.10972" lon="1.49019">
        <ele>27.05</ele>
        <time>2017-06-14T13:07:12Z</time>
      </trkpt>
      <trkpt lat="49.10948" lon="1.48982">
        <ele>25.13</ele>
        <time>2017-06-14T13:07:27Z</time>
      </trkpt>
      <trkpt lat="49.10927" lon="1.48942">
        <ele>25.13</ele>
        <time>2017-06-14T13:07:41Z</time>
      </trkpt>
      <trkpt lat="49.10913" lon="1.48926">
        <ele>24.65</ele>
        <time>2017-06-14T13:07:47Z</time>
      </trkpt>
      <trkpt lat="49.10869" lon="1.48893">
        <ele>22.73</ele>
        <time>2017-06-14T13:08:01Z</time>
      </trkpt>
      <trkpt lat="49.10843" lon="1.48864">
        <ele>24.65</ele>
        <time>2017-06-14T13:08:11Z</time>
      </trkpt>
      <trkpt lat="49.10812" lon="1.4884">
        <ele>24.65</ele>
        <time>2017-06-14T13:08:24Z</time>
      </trkpt>
      <trkpt lat="49.10782" lon="1.48827">
        <ele>25.61</ele>
        <time>2017-06-14T13:08:36Z</time>
      </trkpt>
      <trkpt lat="49.1075" lon="1.48819">
        <ele>25.13</ele>
        <time>2017-06-14T13:08:48Z</time>
      </trkpt>
      <trkpt lat="49.10747" lon="1.48817">
        <ele>24.65</ele>
        <time>2017-06-14T13:08:49Z</time>
      </trkpt>
      <trkpt lat="49.10746" lon="1.48815">
        <ele>24.65</ele>
        <time>2017-06-14T13:08:50Z</time>
      </trkpt>
      <trkpt lat="49.10746" lon="1.48804">
        <ele>23.21</ele>
        <time>2017-06-14T13:08:53Z</time>
      </trkpt>
      <trkpt lat="49.10717" lon="1.48797">
        <ele>22.73</ele>
        <time>2017-06-14T13:09:09Z</time>
      </trkpt>
      <trkpt lat="49.10716" lon="1.48802">
        <ele>23.21</ele>
        <time>2017-06-14T13:09:26Z</time>
      </trkpt>
      <trkpt lat="49.10712" lon="1.48799">
        <ele>23.21</ele>
        <time>2017-06-14T13:09:33Z</time>
      </trkpt>
      <trkpt lat="49.1071" lon="1.488">
        <ele>23.69</ele>
        <time>2017-06-14T13:09:43Z</time>
      </trkpt>
      <trkpt lat="49.1071" lon="1.48797">
        <ele>23.69</ele>
        <time>2017-06-14T13:09:47Z</time>
      </trkpt>
      <trkpt lat="49.10705" lon="1.48798">
        <ele>24.17</ele>
        <time>2017-06-14T13:09:50Z</time>
      </trkpt>
      <trkpt lat="49.10672" lon="1.48794">
        <ele>22.25</ele>
        <time>2017-06-14T13:10:00Z</time>
      </trkpt>
      <trkpt lat="49.1066" lon="1.48792">
        <ele>22.25</ele>
        <time>2017-06-14T13:10:03Z</time>
      </trkpt>
      <trkpt lat="49.10603" lon="1.48779">
        <ele>21.77</ele>
        <time>2017-06-14T13:10:16Z</time>
      </trkpt>
      <trkpt lat="49.106" lon="1.48777">
        <ele>21.77</ele>
        <time>2017-06-14T13:10:17Z</time>
      </trkpt>
      <trkpt lat="49.10579" lon="1.48767">
        <ele>19.84</ele>
        <time>2017-06-14T13:10:24Z</time>
      </trkpt>
      <trkpt lat="49.1058" lon="1.48764">
        <ele>20.32</ele>
        <time>2017-06-14T13:10:25Z</time>
      </trkpt>
      <trkpt lat="49.1059" lon="1.48743">
        <ele>20.32</ele>
        <time>2017-06-14T13:10:31Z</time>
      </trkpt>
      <trkpt lat="49.10596" lon="1.4873">
        <ele>19.84</ele>
        <time>2017-06-14T13:10:38Z</time>
      </trkpt>
      <trkpt lat="49.10604" lon="1.48724">
        <ele>20.81</ele>
        <time>2017-06-14T13:10:53Z</time>
      </trkpt>
      <trkpt lat="49.10605" lon="1.48722">
        <ele>20.81</ele>
        <time>2017-06-14T13:10:54Z</time>
      </trkpt>
      <trkpt lat="49.10604" lon="1.4872">
        <ele>20.32</ele>
        <time>2017-06-14T13:10:55Z</time>
      </trkpt>
      <trkpt lat="49.10597" lon="1.48705">
        <ele>20.32</ele>
        <time>2017-06-14T13:11:01Z</time>
      </trkpt>
      <trkpt lat="49.10597" lon="1.48702">
        <ele>20.32</ele>
        <time>2017-06-14T13:11:02Z</time>
      </trkpt>
      <trkpt lat="49.10598" lon="1.487">
        <ele>20.81</ele>
        <time>2017-06-14T13:11:03Z</time>
      </trkpt>
      <trkpt lat="49.10599" lon="1.48697">
        <ele>21.29</ele>
        <time>2017-06-14T13:11:04Z</time>
      </trkpt>
      <trkpt lat="49.10602" lon="1.48696">
        <ele>21.77</ele>
        <time>2017-06-14T13:11:07Z</time>
      </trkpt>
      <trkpt lat="49.10604" lon="1.48697">
        <ele>21.77</ele>
        <time>2017-06-14T13:11:08Z</time>
      </trkpt>
      <trkpt lat="49.10607" lon="1.48699">
        <ele>22.73</ele>
        <time>2017-06-14T13:11:09Z</time>
      </trkpt>
      <trkpt lat="49.1061" lon="1.487">
        <ele>23.21</ele>
        <time>2017-06-14T13:11:10Z</time>
      </trkpt>
      <trkpt lat="49.10612" lon="1.48701">
        <ele>23.21</ele>
        <time>2017-06-14T13:11:11Z</time>
      </trkpt>
      <trkpt lat="49.10614" lon="1.48702">
        <ele>23.21</ele>
        <time>2017-06-14T13:11:12Z</time>
      </trkpt>
      <trkpt lat="49.10617" lon="1.48703">
        <ele>24.17</ele>
        <time>2017-06-14T13:11:13Z</time>
      </trkpt>
      <trkpt lat="49.10619" lon="1.48705">
        <ele>24.65</ele>
        <time>2017-06-14T13:11:14Z</time>
      </trkpt>
      <trkpt lat="49.10633" lon="1.4871">
        <ele>26.57</ele>
        <time>2017-06-14T13:11:19Z</time>
      </trkpt>
      <trkpt lat="49.1066" lon="1.48717">
        <ele>28.02</ele>
        <time>2017-06-14T13:11:30Z</time>
      </trkpt>
      <trkpt lat="49.10686" lon="1.48716">
        <ele>30.42</ele>
        <time>2017-06-14T13:11:40Z</time>
      </trkpt>
      <trkpt lat="49.10727" lon="1.48717">
        <ele>31.86</ele>
        <time>2017-06-14T13:11:53Z</time>
      </trkpt>
      <trkpt lat="49.10769" lon="1.4872">
        <ele>34.26</ele>
        <time>2017-06-14T13:12:07Z</time>
      </trkpt>
      <trkpt lat="49.10805" lon="1.48728">
        <ele>38.11</ele>
        <time>2017-06-14T13:12:20Z</time>
      </trkpt>
      <trkpt lat="49.10841" lon="1.48736">
        <ele>40.99</ele>
        <time>2017-06-14T13:12:34Z</time>
      </trkpt>
      <trkpt lat="49.1085" lon="1.48737">
        <ele>42.92</ele>
        <time>2017-06-14T13:12:38Z</time>
      </trkpt>
      <trkpt lat="49.10881" lon="1.48747">
        <ele>45.32</ele>
        <time>2017-06-14T13:12:52Z</time>
      </trkpt>
      <trkpt lat="49.10904" lon="1.48755">
        <ele>48.68</ele>
        <time>2017-06-14T13:13:02Z</time>
      </trkpt>
      <trkpt lat="49.10916" lon="1.48759">
        <ele>51.09</ele>
        <time>2017-06-14T13:13:09Z</time>
      </trkpt>
      <trkpt lat="49.10916" lon="1.48756">
        <ele>51.09</ele>
        <time>2017-06-14T13:13:10Z</time>
      </trkpt>
      <trkpt lat="49.10915" lon="1.48755">
        <ele>51.09</ele>
        <time>2017-06-14T13:13:11Z</time>
      </trkpt>
      <trkpt lat="49.10901" lon="1.48739">
        <ele>52.53</ele>
        <time>2017-06-14T13:13:20Z</time>
      </trkpt>
      <trkpt lat="49.10889" lon="1.48721">
        <ele>55.89</ele>
        <time>2017-06-14T13:13:29Z</time>
      </trkpt>
      <trkpt lat="49.10888" lon="1.48718">
        <ele>55.89</ele>
        <time>2017-06-14T13:13:30Z</time>
      </trkpt>
      <trkpt lat="49.10886" lon="1.48716">
        <ele>56.37</ele>
        <time>2017-06-14T13:13:31Z</time>
      </trkpt>
      <trkpt lat="49.10876" lon="1.48698">
        <ele>58.78</ele>
        <time>2017-06-14T13:13:40Z</time>
      </trkpt>
      <trkpt lat="49.10858" lon="1.48675">
        <ele>59.74</ele>
        <time>2017-06-14T13:13:50Z</time>
      </trkpt>
      <trkpt lat="49.10856" lon="1.48673">
        <ele>60.7</ele>
        <time>2017-06-14T13:13:51Z</time>
      </trkpt>
      <trkpt lat="49.10852" lon="1.48669">
        <ele>61.18</ele>
        <time>2017-06-14T13:13:53Z</time>
      </trkpt>
      <trkpt lat="49.10833" lon="1.48649">
        <ele>61.18</ele>
        <time>2017-06-14T13:14:03Z</time>
      </trkpt>
      <trkpt lat="49.1081" lon="1.48626">
        <ele>64.55</ele>
        <time>2017-06-14T13:14:14Z</time>
      </trkpt>
      <trkpt lat="49.10779" lon="1.48604">
        <ele>67.43</ele>
        <time>2017-06-14T13:14:26Z</time>
      </trkpt>
      <trkpt lat="49.10755" lon="1.48584">
        <ele>67.91</ele>
        <time>2017-06-14T13:14:34Z</time>
      </trkpt>
      <trkpt lat="49.10729" lon="1.48566">
        <ele>67.91</ele>
        <time>2017-06-14T13:14:44Z</time>
      </trkpt>
      <trkpt lat="49.10703" lon="1.4855">
        <ele>68.87</ele>
        <time>2017-06-14T13:14:54Z</time>
      </trkpt>
      <trkpt lat="49.10701" lon="1.48548">
        <ele>68.87</ele>
        <time>2017-06-14T13:14:55Z</time>
      </trkpt>
      <trkpt lat="49.10699" lon="1.48547">
        <ele>69.35</ele>
        <time>2017-06-14T13:14:56Z</time>
      </trkpt>
      <trkpt lat="49.10696" lon="1.48545">
        <ele>69.35</ele>
        <time>2017-06-14T13:14:57Z</time>
      </trkpt>
      <trkpt lat="49.10665" lon="1.48524">
        <ele>71.27</ele>
        <time>2017-06-14T13:15:10Z</time>
      </trkpt>
      <trkpt lat="49.10644" lon="1.48509">
        <ele>72.72</ele>
        <time>2017-06-14T13:15:21Z</time>
      </trkpt>
      <trkpt lat="49.10643" lon="1.48508">
        <ele>73.68</ele>
        <time>2017-06-14T13:15:22Z</time>
      </trkpt>
      <trkpt lat="49.10641" lon="1.48506">
        <ele>73.68</ele>
        <time>2017-06-14T13:15:23Z</time>
      </trkpt>
      <trkpt lat="49.1064" lon="1.48504">
        <ele>73.68</ele>
        <time>2017-06-14T13:15:24Z</time>
      </trkpt>
      <trkpt lat="49.1063" lon="1.48499">
        <ele>75.6</ele>
        <time>2017-06-14T13:15:28Z</time>
      </trkpt>
      <trkpt lat="49.10605" lon="1.48482">
        <ele>78.48</ele>
        <time>2017-06-14T13:15:38Z</time>
      </trkpt>
      <trkpt lat="49.10577" lon="1.48463">
        <ele>81.37</ele>
        <time>2017-06-14T13:15:48Z</time>
      </trkpt>
      <trkpt lat="49.10553" lon="1.48438">
        <ele>84.25</ele>
        <time>2017-06-14T13:15:57Z</time>
      </trkpt>
      <trkpt lat="49.10531" lon="1.4841">
        <ele>88.1</ele>
        <time>2017-06-14T13:16:07Z</time>
      </trkpt>
      <trkpt lat="49.10521" lon="1.48379">
        <ele>90.5</ele>
        <time>2017-06-14T13:16:16Z</time>
      </trkpt>
      <trkpt lat="49.10519" lon="1.48373">
        <ele>90.98</ele>
        <time>2017-06-14T13:16:18Z</time>
      </trkpt>
      <trkpt lat="49.10518" lon="1.48367">
        <ele>91.94</ele>
        <time>2017-06-14T13:16:20Z</time>
      </trkpt>
      <trkpt lat="49.10517" lon="1.48364">
        <ele>91.94</ele>
        <time>2017-06-14T13:16:21Z</time>
      </trkpt>
      <trkpt lat="49.10516" lon="1.48361">
        <ele>91.94</ele>
        <time>2017-06-14T13:16:22Z</time>
      </trkpt>
      <trkpt lat="49.10515" lon="1.48359">
        <ele>92.42</ele>
        <time>2017-06-14T13:16:23Z</time>
      </trkpt>
      <trkpt lat="49.10515" lon="1.48355">
        <ele>92.42</ele>
        <time>2017-06-14T13:16:24Z</time>
      </trkpt>
      <trkpt lat="49.10515" lon="1.48351">
        <ele>92.9</ele>
        <time>2017-06-14T13:16:25Z</time>
      </trkpt>
      <trkpt lat="49.10515" lon="1.48347">
        <ele>93.39</ele>
        <time>2017-06-14T13:16:26Z</time>
      </trkpt>
      <trkpt lat="49.1052" lon="1.48293">
        <ele>96.75</ele>
        <time>2017-06-14T13:16:39Z</time>
      </trkpt>
      <trkpt lat="49.10529" lon="1.48268">
        <ele>97.71</ele>
        <time>2017-06-14T13:16:48Z</time>
      </trkpt>
      <trkpt lat="49.10531" lon="1.48268">
        <ele>97.71</ele>
        <time>2017-06-14T13:17:01Z</time>
      </trkpt>
      <trkpt lat="49.10531" lon="1.48265">
        <ele>97.71</ele>
        <time>2017-06-14T13:17:21Z</time>
      </trkpt>
      <trkpt lat="49.1053" lon="1.48263">
        <ele>97.71</ele>
        <time>2017-06-14T13:17:35Z</time>
      </trkpt>
      <trkpt lat="49.10531" lon="1.48266">
        <ele>97.71</ele>
        <time>2017-06-14T13:17:47Z</time>
      </trkpt>
      <trkpt lat="49.10528" lon="1.48264">
        <ele>97.23</ele>
        <time>2017-06-14T13:18:07Z</time>
      </trkpt>
      <trkpt lat="49.1053" lon="1.48262">
        <ele>98.19</ele>
        <time>2017-06-14T13:18:22Z</time>
      </trkpt>
      <trkpt lat="49.10529" lon="1.4826">
        <ele>97.23</ele>
        <time>2017-06-14T13:18:35Z</time>
      </trkpt>
      <trkpt lat="49.1053" lon="1.48259">
        <ele>97.23</ele>
        <time>2017-06-14T13:19:09Z</time>
      </trkpt>
      <trkpt lat="49.10527" lon="1.48258">
        <ele>97.71</ele>
        <time>2017-06-14T13:19:38Z</time>
      </trkpt>
      <trkpt lat="49.10528" lon="1.48261">
        <ele>97.71</ele>
        <time>2017-06-14T13:20:11Z</time>
      </trkpt>
      <trkpt lat="49.10527" lon="1.48263">
        <ele>98.19</ele>
        <time>2017-06-14T13:20:51Z</time>
      </trkpt>
      <trkpt lat="49.10529" lon="1.4826">
        <ele>98.19</ele>
        <time>2017-06-14T13:21:23Z</time>
      </trkpt>
      <trkpt lat="49.10531" lon="1.48262">
        <ele>98.19</ele>
        <time>2017-06-14T13:21:54Z</time>
      </trkpt>
      <trkpt lat="49.1053" lon="1.48263">
        <ele>98.67</ele>
        <time>2017-06-14T13:22:36Z</time>
      </trkpt>
      <trkpt lat="49.10528" lon="1.48263">
        <ele>100.11</ele>
        <time>2017-06-14T13:22:53Z</time>
      </trkpt>
      <trkpt lat="49.10528" lon="1.48264">
        <ele>100.6</ele>
        <time>2017-06-14T13:23:23Z</time>
      </trkpt>
      <trkpt lat="49.10531" lon="1.48262">
        <ele>100.11</ele>
        <time>2017-06-14T13:23:51Z</time>
      </trkpt>
      <trkpt lat="49.10534" lon="1.48263">
        <ele>100.6</ele>
        <time>2017-06-14T13:24:12Z</time>
      </trkpt>
      <trkpt lat="49.10533" lon="1.4826">
        <ele>100.11</ele>
        <time>2017-06-14T13:24:28Z</time>
      </trkpt>
      <trkpt lat="49.10539" lon="1.4826">
        <ele>100.6</ele>
        <time>2017-06-14T13:24:54Z</time>
      </trkpt>
      <trkpt lat="49.10534" lon="1.48253">
        <ele>101.56</ele>
        <time>2017-06-14T13:25:16Z</time>
      </trkpt>
      <trkpt lat="49.10539" lon="1.48248">
        <ele>102.04</ele>
        <time>2017-06-14T13:25:20Z</time>
      </trkpt>
      <trkpt lat="49.10539" lon="1.48247">
        <ele>101.56</ele>
        <time>2017-06-14T13:25:21Z</time>
      </trkpt>
      <trkpt lat="49.1056" lon="1.48231">
        <ele>102.52</ele>
        <time>2017-06-14T13:25:34Z</time>
      </trkpt>
      <trkpt lat="49.10586" lon="1.48212">
        <ele>103</ele>
        <time>2017-06-14T13:25:47Z</time>
      </trkpt>
      <trkpt lat="49.10589" lon="1.48211">
        <ele>103.48</ele>
        <time>2017-06-14T13:25:48Z</time>
      </trkpt>
      <trkpt lat="49.10591" lon="1.48211">
        <ele>103.48</ele>
        <time>2017-06-14T13:25:49Z</time>
      </trkpt>
      <trkpt lat="49.10593" lon="1.4821">
        <ele>103.48</ele>
        <time>2017-06-14T13:25:50Z</time>
      </trkpt>
      <trkpt lat="49.10625" lon="1.48205">
        <ele>104.44</ele>
        <time>2017-06-14T13:26:05Z</time>
      </trkpt>
      <trkpt lat="49.10657" lon="1.48203">
        <ele>104.92</ele>
        <time>2017-06-14T13:26:17Z</time>
      </trkpt>
      <trkpt lat="49.10659" lon="1.48205">
        <ele>105.4</ele>
        <time>2017-06-14T13:26:18Z</time>
      </trkpt>
      <trkpt lat="49.10684" lon="1.48217">
        <ele>108.29</ele>
        <time>2017-06-14T13:26:31Z</time>
      </trkpt>
      <trkpt lat="49.10693" lon="1.48228">
        <ele>108.29</ele>
        <time>2017-06-14T13:26:38Z</time>
      </trkpt>
      <trkpt lat="49.10719" lon="1.4825">
        <ele>109.73</ele>
        <time>2017-06-14T13:26:51Z</time>
      </trkpt>
      <trkpt lat="49.10757" lon="1.48272">
        <ele>111.65</ele>
        <time>2017-06-14T13:27:07Z</time>
      </trkpt>
      <trkpt lat="49.10788" lon="1.48286">
        <ele>114.53</ele>
        <time>2017-06-14T13:27:19Z</time>
      </trkpt>
      <trkpt lat="49.10839" lon="1.4829">
        <ele>115.01</ele>
        <time>2017-06-14T13:27:37Z</time>
      </trkpt>
      <trkpt lat="49.1088" lon="1.48291">
        <ele>116.94</ele>
        <time>2017-06-14T13:27:51Z</time>
      </trkpt>
      <trkpt lat="49.10921" lon="1.48296">
        <ele>117.42</ele>
        <time>2017-06-14T13:28:05Z</time>
      </trkpt>
      <trkpt lat="49.10973" lon="1.48305">
        <ele>118.38</ele>
        <time>2017-06-14T13:28:21Z</time>
      </trkpt>
      <trkpt lat="49.11033" lon="1.48312">
        <ele>118.86</ele>
        <time>2017-06-14T13:28:38Z</time>
      </trkpt>
      <trkpt lat="49.11072" lon="1.48318">
        <ele>119.82</ele>
        <time>2017-06-14T13:28:50Z</time>
      </trkpt>
      <trkpt lat="49.11124" lon="1.48327">
        <ele>119.34</ele>
        <time>2017-06-14T13:29:05Z</time>
      </trkpt>
      <trkpt lat="49.11172" lon="1.48337">
        <ele>120.3</ele>
        <time>2017-06-14T13:29:21Z</time>
      </trkpt>
      <trkpt lat="49.11213" lon="1.48346">
        <ele>120.78</ele>
        <time>2017-06-14T13:29:34Z</time>
      </trkpt>
      <trkpt lat="49.11265" lon="1.48351">
        <ele>121.74</ele>
        <time>2017-06-14T13:29:50Z</time>
      </trkpt>
      <trkpt lat="49.11314" lon="1.48358">
        <ele>121.74</ele>
        <time>2017-06-14T13:30:05Z</time>
      </trkpt>
      <trkpt lat="49.1137" lon="1.48362">
        <ele>122.71</ele>
        <time>2017-06-14T13:30:21Z</time>
      </trkpt>
      <trkpt lat="49.11419" lon="1.48379">
        <ele>122.22</ele>
        <time>2017-06-14T13:30:36Z</time>
      </trkpt>
      <trkpt lat="49.11468" lon="1.48389">
        <ele>121.26</ele>
        <time>2017-06-14T13:30:50Z</time>
      </trkpt>
      <trkpt lat="49.11509" lon="1.4839">
        <ele>120.78</ele>
        <time>2017-06-14T13:31:01Z</time>
      </trkpt>
      <trkpt lat="49.1156" lon="1.48399">
        <ele>122.22</ele>
        <time>2017-06-14T13:31:16Z</time>
      </trkpt>
      <trkpt lat="49.11617" lon="1.48413">
        <ele>124.15</ele>
        <time>2017-06-14T13:31:33Z</time>
      </trkpt>
      <trkpt lat="49.11677" lon="1.48412">
        <ele>125.59</ele>
        <time>2017-06-14T13:31:48Z</time>
      </trkpt>
      <trkpt lat="49.11735" lon="1.4842">
        <ele>127.03</ele>
        <time>2017-06-14T13:32:03Z</time>
      </trkpt>
      <trkpt lat="49.11791" lon="1.4843">
        <ele>126.55</ele>
        <time>2017-06-14T13:32:18Z</time>
      </trkpt>
      <trkpt lat="49.11848" lon="1.48436">
        <ele>126.55</ele>
        <time>2017-06-14T13:32:33Z</time>
      </trkpt>
      <trkpt lat="49.11902" lon="1.48447">
        <ele>124.63</ele>
        <time>2017-06-14T13:32:48Z</time>
      </trkpt>
      <trkpt lat="49.11938" lon="1.48476">
        <ele>123.19</ele>
        <time>2017-06-14T13:33:01Z</time>
      </trkpt>
      <trkpt lat="49.11987" lon="1.48489">
        <ele>122.71</ele>
        <time>2017-06-14T13:33:14Z</time>
      </trkpt>
      <trkpt lat="49.11993" lon="1.48485">
        <ele>125.59</ele>
        <time>2017-06-14T13:41:30Z</time>
      </trkpt>
      <trkpt lat="49.12062" lon="1.48517">
        <ele>127.51</ele>
        <time>2017-06-14T13:45:49Z</time>
      </trkpt>
      <trkpt lat="49.121" lon="1.48534">
        <ele>128.47</ele>
        <time>2017-06-14T13:46:01Z</time>
      </trkpt>
      <trkpt lat="49.12146" lon="1.48554">
        <ele>128.47</ele>
        <time>2017-06-14T13:46:14Z</time>
      </trkpt>
      <trkpt lat="49.12188" lon="1.48561">
        <ele>129.43</ele>
        <time>2017-06-14T13:46:27Z</time>
      </trkpt>
      <trkpt lat="49.12226" lon="1.48575">
        <ele>128.95</ele>
        <time>2017-06-14T13:46:40Z</time>
      </trkpt>
      <trkpt lat="49.1226" lon="1.48588">
        <ele>128.95</ele>
        <time>2017-06-14T13:46:51Z</time>
      </trkpt>
      <trkpt lat="49.12303" lon="1.48622">
        <ele>128.95</ele>
        <time>2017-06-14T13:47:04Z</time>
      </trkpt>
      <trkpt lat="49.12341" lon="1.48652">
        <ele>128.95</ele>
        <time>2017-06-14T13:47:16Z</time>
      </trkpt>
      <trkpt lat="49.12382" lon="1.48697">
        <ele>128.47</ele>
        <time>2017-06-14T13:47:28Z</time>
      </trkpt>
      <trkpt lat="49.12418" lon="1.48751">
        <ele>127.51</ele>
        <time>2017-06-14T13:47:40Z</time>
      </trkpt>
      <trkpt lat="49.12475" lon="1.4879">
        <ele>124.63</ele>
        <time>2017-06-14T13:47:54Z</time>
      </trkpt>
      <trkpt lat="49.12517" lon="1.48813">
        <ele>122.22</ele>
        <time>2017-06-14T13:48:03Z</time>
      </trkpt>
      <trkpt lat="49.12584" lon="1.4887">
        <ele>121.26</ele>
        <time>2017-06-14T13:48:18Z</time>
      </trkpt>
      <trkpt lat="49.12631" lon="1.48903">
        <ele>122.22</ele>
        <time>2017-06-14T13:48:32Z</time>
      </trkpt>
      <trkpt lat="49.12672" lon="1.48941">
        <ele>121.74</ele>
        <time>2017-06-14T13:48:46Z</time>
      </trkpt>
      <trkpt lat="49.12722" lon="1.48968">
        <ele>122.71</ele>
        <time>2017-06-14T13:49:00Z</time>
      </trkpt>
      <trkpt lat="49.12772" lon="1.49001">
        <ele>123.67</ele>
        <time>2017-06-14T13:49:15Z</time>
      </trkpt>
      <trkpt lat="49.1283" lon="1.49032">
        <ele>125.11</ele>
        <time>2017-06-14T13:49:31Z</time>
      </trkpt>
      <trkpt lat="49.12884" lon="1.49042">
        <ele>126.55</ele>
        <time>2017-06-14T13:49:47Z</time>
      </trkpt>
      <trkpt lat="49.12902" lon="1.49045">
        <ele>126.55</ele>
        <time>2017-06-14T13:49:59Z</time>
      </trkpt>
      <trkpt lat="49.12906" lon="1.49045">
        <ele>126.55</ele>
        <time>2017-06-14T13:50:21Z</time>
      </trkpt>
      <trkpt lat="49.12909" lon="1.49034">
        <ele>127.03</ele>
        <time>2017-06-14T13:50:37Z</time>
      </trkpt>
      <trkpt lat="49.12905" lon="1.4903">
        <ele>126.55</ele>
        <time>2017-06-14T13:50:59Z</time>
      </trkpt>
      <trkpt lat="49.12904" lon="1.4903">
        <ele>126.55</ele>
        <time>2017-06-14T13:51:24Z</time>
      </trkpt>
      <trkpt lat="49.12895" lon="1.49027">
        <ele>126.55</ele>
        <time>2017-06-14T13:51:55Z</time>
      </trkpt>
      <trkpt lat="49.12903" lon="1.49056">
        <ele>127.03</ele>
        <time>2017-06-14T13:52:23Z</time>
      </trkpt>
      <trkpt lat="49.12904" lon="1.49043">
        <ele>126.55</ele>
        <time>2017-06-14T13:52:47Z</time>
      </trkpt>
      <trkpt lat="49.12907" lon="1.49029">
        <ele>126.55</ele>
        <time>2017-06-14T13:53:10Z</time>
      </trkpt>
      <trkpt lat="49.129" lon="1.49031">
        <ele>127.03</ele>
        <time>2017-06-14T13:53:34Z</time>
      </trkpt>
      <trkpt lat="49.129" lon="1.49025">
        <ele>126.55</ele>
        <time>2017-06-14T13:54:08Z</time>
      </trkpt>
      <trkpt lat="49.129" lon="1.4902">
        <ele>126.07</ele>
        <time>2017-06-14T13:54:33Z</time>
      </trkpt>
      <trkpt lat="49.12899" lon="1.49021">
        <ele>130.88</ele>
        <time>2017-06-14T13:54:35Z</time>
      </trkpt>
      <trkpt lat="49.12899" lon="1.4902">
        <ele>127.51</ele>
        <time>2017-06-14T13:54:36Z</time>
      </trkpt>
      <trkpt lat="49.12895" lon="1.49022">
        <ele>127.51</ele>
        <time>2017-06-14T13:55:02Z</time>
      </trkpt>
      <trkpt lat="49.12896" lon="1.49026">
        <ele>127.51</ele>
        <time>2017-06-14T13:55:31Z</time>
      </trkpt>
      <trkpt lat="49.12903" lon="1.49033">
        <ele>127.03</ele>
        <time>2017-06-14T13:55:49Z</time>
      </trkpt>
      <trkpt lat="49.12903" lon="1.49029">
        <ele>126.07</ele>
        <time>2017-06-14T13:56:07Z</time>
      </trkpt>
      <trkpt lat="49.12902" lon="1.49029">
        <ele>127.51</ele>
        <time>2017-06-14T13:56:36Z</time>
      </trkpt>
      <trkpt lat="49.12905" lon="1.49031">
        <ele>127.03</ele>
        <time>2017-06-14T13:56:47Z</time>
      </trkpt>
      <trkpt lat="49.12905" lon="1.49031">
        <ele>128.47</ele>
        <time>2017-06-14T13:56:51Z</time>
      </trkpt>
      <trkpt lat="49.12905" lon="1.49042">
        <ele>127.99</ele>
        <time>2017-06-14T13:57:11Z</time>
      </trkpt>
      <trkpt lat="49.12909" lon="1.49034">
        <ele>127.51</ele>
        <time>2017-06-14T13:57:30Z</time>
      </trkpt>
      <trkpt lat="49.12911" lon="1.49034">
        <ele>127.99</ele>
        <time>2017-06-14T13:57:44Z</time>
      </trkpt>
      <trkpt lat="49.12908" lon="1.4903">
        <ele>127.99</ele>
        <time>2017-06-14T13:58:00Z</time>
      </trkpt>
      <trkpt lat="49.12911" lon="1.49029">
        <ele>128.47</ele>
        <time>2017-06-14T13:58:21Z</time>
      </trkpt>
      <trkpt lat="49.12911" lon="1.49038">
        <ele>127.99</ele>
        <time>2017-06-14T13:58:45Z</time>
      </trkpt>
      <trkpt lat="49.12906" lon="1.49041">
        <ele>128.47</ele>
        <time>2017-06-14T13:59:00Z</time>
      </trkpt>
      <trkpt lat="49.12908" lon="1.49032">
        <ele>128.47</ele>
        <time>2017-06-14T13:59:21Z</time>
      </trkpt>
      <trkpt lat="49.12905" lon="1.49036">
        <ele>128.47</ele>
        <time>2017-06-14T13:59:35Z</time>
      </trkpt>
      <trkpt lat="49.12906" lon="1.49035">
        <ele>129.43</ele>
        <time>2017-06-14T13:59:58Z</time>
      </trkpt>
      <trkpt lat="49.12902" lon="1.49035">
        <ele>128.95</ele>
        <time>2017-06-14T14:00:18Z</time>
      </trkpt>
      <trkpt lat="49.12903" lon="1.49049">
        <ele>129.92</ele>
        <time>2017-06-14T14:00:45Z</time>
      </trkpt>
      <trkpt lat="49.12906" lon="1.49039">
        <ele>129.92</ele>
        <time>2017-06-14T14:01:04Z</time>
      </trkpt>
      <trkpt lat="49.12904" lon="1.49036">
        <ele>129.92</ele>
        <time>2017-06-14T14:01:29Z</time>
      </trkpt>
      <trkpt lat="49.12903" lon="1.49025">
        <ele>130.4</ele>
        <time>2017-06-14T14:01:46Z</time>
      </trkpt>
      <trkpt lat="49.12902" lon="1.49033">
        <ele>129.92</ele>
        <time>2017-06-14T14:01:52Z</time>
      </trkpt>
      <trkpt lat="49.12906" lon="1.4904">
        <ele>130.4</ele>
        <time>2017-06-14T14:01:56Z</time>
      </trkpt>
      <trkpt lat="49.12931" lon="1.49062">
        <ele>131.36</ele>
        <time>2017-06-14T14:02:11Z</time>
      </trkpt>
      <trkpt lat="49.12971" lon="1.49069">
        <ele>132.32</ele>
        <time>2017-06-14T14:02:25Z</time>
      </trkpt>
      <trkpt lat="49.12999" lon="1.49074">
        <ele>133.28</ele>
        <time>2017-06-14T14:02:35Z</time>
      </trkpt>
      <trkpt lat="49.13051" lon="1.49094">
        <ele>133.76</ele>
        <time>2017-06-14T14:02:51Z</time>
      </trkpt>
      <trkpt lat="49.13108" lon="1.49137">
        <ele>135.2</ele>
        <time>2017-06-14T14:03:08Z</time>
      </trkpt>
      <trkpt lat="49.13147" lon="1.49194">
        <ele>135.68</ele>
        <time>2017-06-14T14:03:23Z</time>
      </trkpt>
      <trkpt lat="49.13178" lon="1.49238">
        <ele>135.68</ele>
        <time>2017-06-14T14:03:36Z</time>
      </trkpt>
      <trkpt lat="49.13211" lon="1.49288">
        <ele>135.68</ele>
        <time>2017-06-14T14:03:50Z</time>
      </trkpt>
      <trkpt lat="49.13247" lon="1.49352">
        <ele>135.68</ele>
        <time>2017-06-14T14:04:06Z</time>
      </trkpt>
      <trkpt lat="49.13294" lon="1.49387">
        <ele>136.64</ele>
        <time>2017-06-14T14:04:20Z</time>
      </trkpt>
      <trkpt lat="49.1334" lon="1.49415">
        <ele>138.09</ele>
        <time>2017-06-14T14:04:34Z</time>
      </trkpt>
      <trkpt lat="49.13398" lon="1.49461">
        <ele>140.01</ele>
        <time>2017-06-14T14:04:51Z</time>
      </trkpt>
      <trkpt lat="49.1345" lon="1.49505">
        <ele>141.45</ele>
        <time>2017-06-14T14:05:08Z</time>
      </trkpt>
      <trkpt lat="49.13507" lon="1.49544">
        <ele>143.85</ele>
        <time>2017-06-14T14:05:24Z</time>
      </trkpt>
      <trkpt lat="49.13563" lon="1.49582">
        <ele>144.82</ele>
        <time>2017-06-14T14:05:39Z</time>
      </trkpt>
      <trkpt lat="49.13629" lon="1.49628">
        <ele>146.26</ele>
        <time>2017-06-14T14:05:56Z</time>
      </trkpt>
      <trkpt lat="49.13683" lon="1.49666">
        <ele>146.74</ele>
        <time>2017-06-14T14:06:11Z</time>
      </trkpt>
      <trkpt lat="49.13734" lon="1.49704">
        <ele>148.18</ele>
        <time>2017-06-14T14:06:26Z</time>
      </trkpt>
      <trkpt lat="49.13771" lon="1.49733">
        <ele>148.18</ele>
        <time>2017-06-14T14:06:39Z</time>
      </trkpt>
      <trkpt lat="49.13797" lon="1.49753">
        <ele>148.18</ele>
        <time>2017-06-14T14:06:51Z</time>
      </trkpt>
      <trkpt lat="49.13812" lon="1.49748">
        <ele>147.7</ele>
        <time>2017-06-14T14:07:06Z</time>
      </trkpt>
      <trkpt lat="49.13816" lon="1.49751">
        <ele>147.22</ele>
        <time>2017-06-14T14:07:30Z</time>
      </trkpt>
      <trkpt lat="49.13824" lon="1.49753">
        <ele>147.22</ele>
        <time>2017-06-14T14:07:48Z</time>
      </trkpt>
      <trkpt lat="49.13849" lon="1.49764">
        <ele>147.7</ele>
        <time>2017-06-14T14:08:00Z</time>
      </trkpt>
      <trkpt lat="49.13894" lon="1.49785">
        <ele>147.7</ele>
        <time>2017-06-14T14:08:15Z</time>
      </trkpt>
      <trkpt lat="49.13945" lon="1.49807">
        <ele>147.7</ele>
        <time>2017-06-14T14:08:30Z</time>
      </trkpt>
      <trkpt lat="49.13999" lon="1.49825">
        <ele>148.18</ele>
        <time>2017-06-14T14:08:45Z</time>
      </trkpt>
      <trkpt lat="49.1407" lon="1.49849">
        <ele>148.18</ele>
        <time>2017-06-14T14:09:05Z</time>
      </trkpt>
      <trkpt lat="49.14115" lon="1.49864">
        <ele>148.66</ele>
        <time>2017-06-14T14:09:19Z</time>
      </trkpt>
      <trkpt lat="49.14172" lon="1.49882">
        <ele>150.1</ele>
        <time>2017-06-14T14:09:35Z</time>
      </trkpt>
      <trkpt lat="49.14241" lon="1.49913">
        <ele>150.1</ele>
        <time>2017-06-14T14:09:55Z</time>
      </trkpt>
      <trkpt lat="49.1429" lon="1.49935">
        <ele>150.1</ele>
        <time>2017-06-14T14:10:09Z</time>
      </trkpt>
      <trkpt lat="49.14331" lon="1.49956">
        <ele>150.1</ele>
        <time>2017-06-14T14:10:24Z</time>
      </trkpt>
      <trkpt lat="49.14331" lon="1.49953">
        <ele>150.58</ele>
        <time>2017-06-14T14:10:25Z</time>
      </trkpt>
      <trkpt lat="49.14331" lon="1.49951">
        <ele>150.1</ele>
        <time>2017-06-14T14:10:26Z</time>
      </trkpt>
      <trkpt lat="49.14331" lon="1.49947">
        <ele>150.58</ele>
        <time>2017-06-14T14:10:27Z</time>
      </trkpt>
      <trkpt lat="49.1433" lon="1.49944">
        <ele>150.58</ele>
        <time>2017-06-14T14:10:28Z</time>
      </trkpt>
      <trkpt lat="49.14319" lon="1.49873">
        <ele>151.06</ele>
        <time>2017-06-14T14:10:42Z</time>
      </trkpt>
      <trkpt lat="49.14288" lon="1.49744">
        <ele>150.1</ele>
        <time>2017-06-14T14:11:00Z</time>
      </trkpt>
      <trkpt lat="49.14251" lon="1.49617">
        <ele>148.18</ele>
        <time>2017-06-14T14:11:15Z</time>
      </trkpt>
      <trkpt lat="49.14247" lon="1.49609">
        <ele>148.18</ele>
        <time>2017-06-14T14:11:16Z</time>
      </trkpt>
      <trkpt lat="49.14227" lon="1.49567">
        <ele>147.7</ele>
        <time>2017-06-14T14:11:21Z</time>
      </trkpt>
      <trkpt lat="49.14207" lon="1.49438">
        <ele>147.22</ele>
        <time>2017-06-14T14:11:35Z</time>
      </trkpt>
      <trkpt lat="49.14198" lon="1.49273">
        <ele>148.66</ele>
        <time>2017-06-14T14:11:55Z</time>
      </trkpt>
      <trkpt lat="49.142" lon="1.4926">
        <ele>148.66</ele>
        <time>2017-06-14T14:11:57Z</time>
      </trkpt>
      <trkpt lat="49.14202" lon="1.49254">
        <ele>147.7</ele>
        <time>2017-06-14T14:11:58Z</time>
      </trkpt>
      <trkpt lat="49.14239" lon="1.4918">
        <ele>149.14</ele>
        <time>2017-06-14T14:12:12Z</time>
      </trkpt>
      <trkpt lat="49.14284" lon="1.49092">
        <ele>150.1</ele>
        <time>2017-06-14T14:12:28Z</time>
      </trkpt>
      <trkpt lat="49.14342" lon="1.48981">
        <ele>152.03</ele>
        <time>2017-06-14T14:12:48Z</time>
      </trkpt>
      <trkpt lat="49.14397" lon="1.48866">
        <ele>150.58</ele>
        <time>2017-06-14T14:13:07Z</time>
      </trkpt>
      <trkpt lat="49.14423" lon="1.48827">
        <ele>150.1</ele>
        <time>2017-06-14T14:13:15Z</time>
      </trkpt>
      <trkpt lat="49.14426" lon="1.48822">
        <ele>150.1</ele>
        <time>2017-06-14T14:13:16Z</time>
      </trkpt>
      <trkpt lat="49.14428" lon="1.48816">
        <ele>149.62</ele>
        <time>2017-06-14T14:13:17Z</time>
      </trkpt>
      <trkpt lat="49.14448" lon="1.48774">
        <ele>149.62</ele>
        <time>2017-06-14T14:13:25Z</time>
      </trkpt>
      <trkpt lat="49.14451" lon="1.48768">
        <ele>150.1</ele>
        <time>2017-06-14T14:13:26Z</time>
      </trkpt>
      <trkpt lat="49.1451" lon="1.48648">
        <ele>148.18</ele>
        <time>2017-06-14T14:13:44Z</time>
      </trkpt>
      <trkpt lat="49.14575" lon="1.48569">
        <ele>147.22</ele>
        <time>2017-06-14T14:13:59Z</time>
      </trkpt>
      <trkpt lat="49.14654" lon="1.48519">
        <ele>148.66</ele>
        <time>2017-06-14T14:14:15Z</time>
      </trkpt>
      <trkpt lat="49.14736" lon="1.48493">
        <ele>151.06</ele>
        <time>2017-06-14T14:14:30Z</time>
      </trkpt>
      <trkpt lat="49.14821" lon="1.48475">
        <ele>152.03</ele>
        <time>2017-06-14T14:14:47Z</time>
      </trkpt>
      <trkpt lat="49.14912" lon="1.48484">
        <ele>152.99</ele>
        <time>2017-06-14T14:15:06Z</time>
      </trkpt>
      <trkpt lat="49.15024" lon="1.48485">
        <ele>152.03</ele>
        <time>2017-06-14T14:15:28Z</time>
      </trkpt>
      <trkpt lat="49.15061" lon="1.48478">
        <ele>151.54</ele>
        <time>2017-06-14T14:15:36Z</time>
      </trkpt>
      <trkpt lat="49.15065" lon="1.48476">
        <ele>151.06</ele>
        <time>2017-06-14T14:15:37Z</time>
      </trkpt>
      <trkpt lat="49.15068" lon="1.48472">
        <ele>151.06</ele>
        <time>2017-06-14T14:15:38Z</time>
      </trkpt>
      <trkpt lat="49.15075" lon="1.48464">
        <ele>151.54</ele>
        <time>2017-06-14T14:15:40Z</time>
      </trkpt>
      <trkpt lat="49.15078" lon="1.48459">
        <ele>151.06</ele>
        <time>2017-06-14T14:15:41Z</time>
      </trkpt>
      <trkpt lat="49.151" lon="1.48412">
        <ele>151.06</ele>
        <time>2017-06-14T14:15:50Z</time>
      </trkpt>
      <trkpt lat="49.15123" lon="1.48371">
        <ele>150.1</ele>
        <time>2017-06-14T14:15:58Z</time>
      </trkpt>
      <trkpt lat="49.15126" lon="1.48366">
        <ele>151.06</ele>
        <time>2017-06-14T14:15:59Z</time>
      </trkpt>
      <trkpt lat="49.1513" lon="1.48361">
        <ele>150.58</ele>
        <time>2017-06-14T14:16:00Z</time>
      </trkpt>
      <trkpt lat="49.15181" lon="1.48324">
        <ele>148.66</ele>
        <time>2017-06-14T14:16:14Z</time>
      </trkpt>
      <trkpt lat="49.15199" lon="1.48323">
        <ele>148.18</ele>
        <time>2017-06-14T14:16:26Z</time>
      </trkpt>
      <trkpt lat="49.15201" lon="1.48324">
        <ele>144.34</ele>
        <time>2017-06-14T14:16:41Z</time>
      </trkpt>
      <trkpt lat="49.15201" lon="1.48324">
        <ele>150.58</ele>
        <time>2017-06-14T14:16:42Z</time>
      </trkpt>
      <trkpt lat="49.15202" lon="1.48324">
        <ele>144.82</ele>
        <time>2017-06-14T14:16:50Z</time>
      </trkpt>
      <trkpt lat="49.15202" lon="1.48324">
        <ele>151.54</ele>
        <time>2017-06-14T14:16:51Z</time>
      </trkpt>
      <trkpt lat="49.15202" lon="1.48324">
        <ele>148.18</ele>
        <time>2017-06-14T14:16:52Z</time>
      </trkpt>
      <trkpt lat="49.15202" lon="1.48323">
        <ele>148.18</ele>
        <time>2017-06-14T14:17:15Z</time>
      </trkpt>
      <trkpt lat="49.152" lon="1.48325">
        <ele>143.37</ele>
        <time>2017-06-14T14:17:37Z</time>
      </trkpt>
      <trkpt lat="49.15201" lon="1.48325">
        <ele>151.54</ele>
        <time>2017-06-14T14:17:38Z</time>
      </trkpt>
      <trkpt lat="49.15201" lon="1.48325">
        <ele>147.7</ele>
        <time>2017-06-14T14:17:39Z</time>
      </trkpt>
      <trkpt lat="49.152" lon="1.48325">
        <ele>151.54</ele>
        <time>2017-06-14T14:17:44Z</time>
      </trkpt>
      <trkpt lat="49.152" lon="1.48325">
        <ele>147.7</ele>
        <time>2017-06-14T14:17:45Z</time>
      </trkpt>
      <trkpt lat="49.152" lon="1.48325">
        <ele>144.34</ele>
        <time>2017-06-14T14:17:46Z</time>
      </trkpt>
      <trkpt lat="49.152" lon="1.48325">
        <ele>150.58</ele>
        <time>2017-06-14T14:17:47Z</time>
      </trkpt>
      <trkpt lat="49.15199" lon="1.48323">
        <ele>147.7</ele>
        <time>2017-06-14T14:17:52Z</time>
      </trkpt>
      <trkpt lat="49.15199" lon="1.48322">
        <ele>149.62</ele>
        <time>2017-06-14T14:17:54Z</time>
      </trkpt>
      <trkpt lat="49.15199" lon="1.48322">
        <ele>146.26</ele>
        <time>2017-06-14T14:17:56Z</time>
      </trkpt>
      <trkpt lat="49.15199" lon="1.48322">
        <ele>149.62</ele>
        <time>2017-06-14T14:17:57Z</time>
      </trkpt>
      <trkpt lat="49.15199" lon="1.48322">
        <ele>146.26</ele>
        <time>2017-06-14T14:17:59Z</time>
      </trkpt>
      <trkpt lat="49.15198" lon="1.48321">
        <ele>148.18</ele>
        <time>2017-06-14T14:18:02Z</time>
      </trkpt>
      <trkpt lat="49.15199" lon="1.48321">
        <ele>150.1</ele>
        <time>2017-06-14T14:18:04Z</time>
      </trkpt>
      <trkpt lat="49.152" lon="1.48323">
        <ele>146.26</ele>
        <time>2017-06-14T14:18:11Z</time>
      </trkpt>
      <trkpt lat="49.152" lon="1.48323">
        <ele>150.58</ele>
        <time>2017-06-14T14:18:12Z</time>
      </trkpt>
      <trkpt lat="49.15201" lon="1.48325">
        <ele>148.66</ele>
        <time>2017-06-14T14:18:15Z</time>
      </trkpt>
      <trkpt lat="49.15197" lon="1.48323">
        <ele>149.14</ele>
        <time>2017-06-14T14:18:38Z</time>
      </trkpt>
      <trkpt lat="49.15202" lon="1.48325">
        <ele>148.66</ele>
        <time>2017-06-14T14:18:44Z</time>
      </trkpt>
      <trkpt lat="49.15203" lon="1.48325">
        <ele>148.66</ele>
        <time>2017-06-14T14:18:45Z</time>
      </trkpt>
      <trkpt lat="49.15205" lon="1.48325">
        <ele>148.18</ele>
        <time>2017-06-14T14:18:46Z</time>
      </trkpt>
      <trkpt lat="49.15206" lon="1.48325">
        <ele>148.18</ele>
        <time>2017-06-14T14:18:47Z</time>
      </trkpt>
      <trkpt lat="49.15208" lon="1.48324">
        <ele>148.18</ele>
        <time>2017-06-14T14:18:48Z</time>
      </trkpt>
      <trkpt lat="49.1521" lon="1.48323">
        <ele>148.66</ele>
        <time>2017-06-14T14:18:49Z</time>
      </trkpt>
      <trkpt lat="49.15212" lon="1.48321">
        <ele>148.66</ele>
        <time>2017-06-14T14:18:50Z</time>
      </trkpt>
      <trkpt lat="49.15214" lon="1.4832">
        <ele>148.18</ele>
        <time>2017-06-14T14:18:51Z</time>
      </trkpt>
      <trkpt lat="49.15215" lon="1.48318">
        <ele>148.18</ele>
        <time>2017-06-14T14:18:52Z</time>
      </trkpt>
      <trkpt lat="49.15217" lon="1.48314">
        <ele>148.66</ele>
        <time>2017-06-14T14:18:53Z</time>
      </trkpt>
      <trkpt lat="49.15218" lon="1.4831">
        <ele>148.66</ele>
        <time>2017-06-14T14:18:54Z</time>
      </trkpt>
      <trkpt lat="49.15218" lon="1.48305">
        <ele>148.18</ele>
        <time>2017-06-14T14:18:55Z</time>
      </trkpt>
      <trkpt lat="49.15218" lon="1.48302">
        <ele>148.18</ele>
        <time>2017-06-14T14:18:56Z</time>
      </trkpt>
      <trkpt lat="49.15218" lon="1.48297">
        <ele>148.18</ele>
        <time>2017-06-14T14:18:57Z</time>
      </trkpt>
      <trkpt lat="49.15217" lon="1.48293">
        <ele>148.66</ele>
        <time>2017-06-14T14:18:58Z</time>
      </trkpt>
      <trkpt lat="49.15211" lon="1.48222">
        <ele>148.66</ele>
        <time>2017-06-14T14:19:14Z</time>
      </trkpt>
      <trkpt lat="49.15231" lon="1.48156">
        <ele>148.66</ele>
        <time>2017-06-14T14:19:26Z</time>
      </trkpt>
      <trkpt lat="49.15275" lon="1.4804">
        <ele>148.66</ele>
        <time>2017-06-14T14:19:46Z</time>
      </trkpt>
      <trkpt lat="49.15313" lon="1.47936">
        <ele>147.7</ele>
        <time>2017-06-14T14:20:05Z</time>
      </trkpt>
      <trkpt lat="49.15347" lon="1.47821">
        <ele>147.7</ele>
        <time>2017-06-14T14:20:25Z</time>
      </trkpt>
      <trkpt lat="49.15384" lon="1.47702">
        <ele>146.74</ele>
        <time>2017-06-14T14:20:45Z</time>
      </trkpt>
      <trkpt lat="49.15419" lon="1.47583">
        <ele>147.22</ele>
        <time>2017-06-14T14:21:06Z</time>
      </trkpt>
      <trkpt lat="49.1544" lon="1.47522">
        <ele>146.74</ele>
        <time>2017-06-14T14:21:19Z</time>
      </trkpt>
      <trkpt lat="49.1547" lon="1.47457">
        <ele>147.22</ele>
        <time>2017-06-14T14:21:34Z</time>
      </trkpt>
      <trkpt lat="49.15512" lon="1.47407">
        <ele>147.22</ele>
        <time>2017-06-14T14:21:52Z</time>
      </trkpt>
      <trkpt lat="49.15526" lon="1.47391">
        <ele>147.7</ele>
        <time>2017-06-14T14:22:06Z</time>
      </trkpt>
      <trkpt lat="49.15526" lon="1.47389">
        <ele>148.66</ele>
        <time>2017-06-14T14:22:07Z</time>
      </trkpt>
      <trkpt lat="49.15548" lon="1.47353">
        <ele>148.66</ele>
        <time>2017-06-14T14:22:22Z</time>
      </trkpt>
      <trkpt lat="49.15604" lon="1.4729">
        <ele>148.66</ele>
        <time>2017-06-14T14:22:42Z</time>
      </trkpt>
      <trkpt lat="49.15632" lon="1.47259">
        <ele>148.66</ele>
        <time>2017-06-14T14:22:52Z</time>
      </trkpt>
      <trkpt lat="49.15658" lon="1.47182">
        <ele>148.66</ele>
        <time>2017-06-14T14:23:12Z</time>
      </trkpt>
      <trkpt lat="49.15689" lon="1.47119">
        <ele>148.18</ele>
        <time>2017-06-14T14:23:32Z</time>
      </trkpt>
      <trkpt lat="49.1571" lon="1.4709">
        <ele>148.18</ele>
        <time>2017-06-14T14:23:45Z</time>
      </trkpt>
      <trkpt lat="49.15736" lon="1.47009">
        <ele>148.18</ele>
        <time>2017-06-14T14:24:01Z</time>
      </trkpt>
      <trkpt lat="49.15741" lon="1.46908">
        <ele>148.66</ele>
        <time>2017-06-14T14:24:21Z</time>
      </trkpt>
      <trkpt lat="49.15757" lon="1.4685">
        <ele>148.18</ele>
        <time>2017-06-14T14:24:35Z</time>
      </trkpt>
      <trkpt lat="49.15767" lon="1.46796">
        <ele>148.18</ele>
        <time>2017-06-14T14:24:50Z</time>
      </trkpt>
      <trkpt lat="49.15769" lon="1.46735">
        <ele>148.18</ele>
        <time>2017-06-14T14:25:07Z</time>
      </trkpt>
      <trkpt lat="49.15731" lon="1.46644">
        <ele>147.7</ele>
        <time>2017-06-14T14:25:24Z</time>
      </trkpt>
      <trkpt lat="49.15715" lon="1.46599">
        <ele>147.7</ele>
        <time>2017-06-14T14:25:37Z</time>
      </trkpt>
      <trkpt lat="49.15695" lon="1.46522">
        <ele>148.18</ele>
        <time>2017-06-14T14:25:54Z</time>
      </trkpt>
      <trkpt lat="49.15674" lon="1.46431">
        <ele>147.7</ele>
        <time>2017-06-14T14:26:11Z</time>
      </trkpt>
      <trkpt lat="49.15657" lon="1.4635">
        <ele>146.26</ele>
        <time>2017-06-14T14:26:28Z</time>
      </trkpt>
      <trkpt lat="49.15644" lon="1.46291">
        <ele>144.82</ele>
        <time>2017-06-14T14:26:44Z</time>
      </trkpt>
      <trkpt lat="49.15627" lon="1.46203">
        <ele>143.85</ele>
        <time>2017-06-14T14:27:02Z</time>
      </trkpt>
      <trkpt lat="49.15609" lon="1.46121">
        <ele>142.41</ele>
        <time>2017-06-14T14:27:17Z</time>
      </trkpt>
      <trkpt lat="49.15579" lon="1.46039">
        <ele>141.45</ele>
        <time>2017-06-14T14:27:32Z</time>
      </trkpt>
      <trkpt lat="49.15519" lon="1.45799">
        <ele>150.1</ele>
        <time>2017-06-14T14:59:23Z</time>
      </trkpt>
      <trkpt lat="49.15505" lon="1.45751">
        <ele>150.1</ele>
        <time>2017-06-14T14:59:35Z</time>
      </trkpt>
      <trkpt lat="49.15505" lon="1.45748">
        <ele>149.62</ele>
        <time>2017-06-14T14:59:36Z</time>
      </trkpt>
      <trkpt lat="49.15505" lon="1.45745">
        <ele>149.14</ele>
        <time>2017-06-14T14:59:37Z</time>
      </trkpt>
      <trkpt lat="49.15505" lon="1.45741">
        <ele>149.62</ele>
        <time>2017-06-14T14:59:38Z</time>
      </trkpt>
      <trkpt lat="49.15504" lon="1.45737">
        <ele>149.62</ele>
        <time>2017-06-14T14:59:39Z</time>
      </trkpt>
      <trkpt lat="49.15492" lon="1.45696">
        <ele>149.14</ele>
        <time>2017-06-14T14:59:50Z</time>
      </trkpt>
      <trkpt lat="49.15491" lon="1.45692">
        <ele>149.14</ele>
        <time>2017-06-14T14:59:51Z</time>
      </trkpt>
      <trkpt lat="49.15491" lon="1.45688">
        <ele>149.14</ele>
        <time>2017-06-14T14:59:52Z</time>
      </trkpt>
      <trkpt lat="49.1549" lon="1.45684">
        <ele>149.14</ele>
        <time>2017-06-14T14:59:53Z</time>
      </trkpt>
      <trkpt lat="49.15489" lon="1.45681">
        <ele>149.14</ele>
        <time>2017-06-14T14:59:54Z</time>
      </trkpt>
      <trkpt lat="49.15473" lon="1.45637">
        <ele>150.1</ele>
        <time>2017-06-14T15:00:06Z</time>
      </trkpt>
      <trkpt lat="49.15458" lon="1.45566">
        <ele>149.14</ele>
        <time>2017-06-14T15:00:20Z</time>
      </trkpt>
      <trkpt lat="49.15448" lon="1.4551">
        <ele>148.18</ele>
        <time>2017-06-14T15:00:36Z</time>
      </trkpt>
      <trkpt lat="49.15436" lon="1.45448">
        <ele>144.82</ele>
        <time>2017-06-14T15:00:50Z</time>
      </trkpt>
      <trkpt lat="49.15433" lon="1.45436">
        <ele>143.37</ele>
        <time>2017-06-14T15:00:54Z</time>
      </trkpt>
      <trkpt lat="49.15414" lon="1.45403">
        <ele>141.45</ele>
        <time>2017-06-14T15:01:02Z</time>
      </trkpt>
      <trkpt lat="49.15407" lon="1.45385">
        <ele>139.05</ele>
        <time>2017-06-14T15:01:08Z</time>
      </trkpt>
      <trkpt lat="49.15398" lon="1.45362">
        <ele>135.68</ele>
        <time>2017-06-14T15:01:16Z</time>
      </trkpt>
      <trkpt lat="49.15395" lon="1.45345">
        <ele>133.76</ele>
        <time>2017-06-14T15:01:21Z</time>
      </trkpt>
      <trkpt lat="49.15392" lon="1.45331">
        <ele>130.88</ele>
        <time>2017-06-14T15:01:27Z</time>
      </trkpt>
      <trkpt lat="49.15391" lon="1.45329">
        <ele>131.36</ele>
        <time>2017-06-14T15:01:28Z</time>
      </trkpt>
      <trkpt lat="49.1539" lon="1.45322">
        <ele>129.92</ele>
        <time>2017-06-14T15:01:31Z</time>
      </trkpt>
      <trkpt lat="49.1539" lon="1.45315">
        <ele>127.99</ele>
        <time>2017-06-14T15:01:34Z</time>
      </trkpt>
      <trkpt lat="49.15389" lon="1.453">
        <ele>125.11</ele>
        <time>2017-06-14T15:01:40Z</time>
      </trkpt>
      <trkpt lat="49.15389" lon="1.45288">
        <ele>121.26</ele>
        <time>2017-06-14T15:01:46Z</time>
      </trkpt>
      <trkpt lat="49.15388" lon="1.45285">
        <ele>121.74</ele>
        <time>2017-06-14T15:01:47Z</time>
      </trkpt>
      <trkpt lat="49.15385" lon="1.45275">
        <ele>119.82</ele>
        <time>2017-06-14T15:01:50Z</time>
      </trkpt>
      <trkpt lat="49.1538" lon="1.4526">
        <ele>117.9</ele>
        <time>2017-06-14T15:01:54Z</time>
      </trkpt>
      <trkpt lat="49.15371" lon="1.45236">
        <ele>114.05</ele>
        <time>2017-06-14T15:02:00Z</time>
      </trkpt>
      <trkpt lat="49.15364" lon="1.45214">
        <ele>110.69</ele>
        <time>2017-06-14T15:02:05Z</time>
      </trkpt>
      <trkpt lat="49.15357" lon="1.45188">
        <ele>107.32</ele>
        <time>2017-06-14T15:02:10Z</time>
      </trkpt>
      <trkpt lat="49.15347" lon="1.45166">
        <ele>103.96</ele>
        <time>2017-06-14T15:02:15Z</time>
      </trkpt>
      <trkpt lat="49.15346" lon="1.45163">
        <ele>103.48</ele>
        <time>2017-06-14T15:02:16Z</time>
      </trkpt>
      <trkpt lat="49.15341" lon="1.45148">
        <ele>101.56</ele>
        <time>2017-06-14T15:02:21Z</time>
      </trkpt>
      <trkpt lat="49.15344" lon="1.45134">
        <ele>99.63</ele>
        <time>2017-06-14T15:02:28Z</time>
      </trkpt>
      <trkpt lat="49.15346" lon="1.45134">
        <ele>99.15</ele>
        <time>2017-06-14T15:02:29Z</time>
      </trkpt>
      <trkpt lat="49.15348" lon="1.45134">
        <ele>99.63</ele>
        <time>2017-06-14T15:02:30Z</time>
      </trkpt>
      <trkpt lat="49.15351" lon="1.45131">
        <ele>99.15</ele>
        <time>2017-06-14T15:02:44Z</time>
      </trkpt>
      <trkpt lat="49.15354" lon="1.45126">
        <ele>99.63</ele>
        <time>2017-06-14T15:03:13Z</time>
      </trkpt>
      <trkpt lat="49.1536" lon="1.45123">
        <ele>99.15</ele>
        <time>2017-06-14T15:03:24Z</time>
      </trkpt>
      <trkpt lat="49.15361" lon="1.45121">
        <ele>99.15</ele>
        <time>2017-06-14T15:03:25Z</time>
      </trkpt>
      <trkpt lat="49.15362" lon="1.4512">
        <ele>99.15</ele>
        <time>2017-06-14T15:03:26Z</time>
      </trkpt>
      <trkpt lat="49.15386" lon="1.45104">
        <ele>94.83</ele>
        <time>2017-06-14T15:03:38Z</time>
      </trkpt>
      <trkpt lat="49.15389" lon="1.45102">
        <ele>95.31</ele>
        <time>2017-06-14T15:03:39Z</time>
      </trkpt>
      <trkpt lat="49.15399" lon="1.45097">
        <ele>93.87</ele>
        <time>2017-06-14T15:03:54Z</time>
      </trkpt>
      <trkpt lat="49.15402" lon="1.45089">
        <ele>93.87</ele>
        <time>2017-06-14T15:04:22Z</time>
      </trkpt>
      <trkpt lat="49.15405" lon="1.45086">
        <ele>94.35</ele>
        <time>2017-06-14T15:04:28Z</time>
      </trkpt>
      <trkpt lat="49.15423" lon="1.45062">
        <ele>97.71</ele>
        <time>2017-06-14T15:04:39Z</time>
      </trkpt>
      <trkpt lat="49.15445" lon="1.4506">
        <ele>100.6</ele>
        <time>2017-06-14T15:04:48Z</time>
      </trkpt>
      <trkpt lat="49.1546" lon="1.45061">
        <ele>103.96</ele>
        <time>2017-06-14T15:04:54Z</time>
      </trkpt>
      <trkpt lat="49.15468" lon="1.45061">
        <ele>105.4</ele>
        <time>2017-06-14T15:04:57Z</time>
      </trkpt>
      <trkpt lat="49.15483" lon="1.45056">
        <ele>108.29</ele>
        <time>2017-06-14T15:05:03Z</time>
      </trkpt>
      <trkpt lat="49.15502" lon="1.45048">
        <ele>111.65</ele>
        <time>2017-06-14T15:05:12Z</time>
      </trkpt>
      <trkpt lat="49.15532" lon="1.45047">
        <ele>115.01</ele>
        <time>2017-06-14T15:05:21Z</time>
      </trkpt>
      <trkpt lat="49.15568" lon="1.45038">
        <ele>117.42</ele>
        <time>2017-06-14T15:05:36Z</time>
      </trkpt>
      <trkpt lat="49.15602" lon="1.45019">
        <ele>119.34</ele>
        <time>2017-06-14T15:05:52Z</time>
      </trkpt>
      <trkpt lat="49.15635" lon="1.44994">
        <ele>118.38</ele>
        <time>2017-06-14T15:06:07Z</time>
      </trkpt>
      <trkpt lat="49.15652" lon="1.44974">
        <ele>115.01</ele>
        <time>2017-06-14T15:06:17Z</time>
      </trkpt>
      <trkpt lat="49.15682" lon="1.44968">
        <ele>111.65</ele>
        <time>2017-06-14T15:06:27Z</time>
      </trkpt>
      <trkpt lat="49.15686" lon="1.44968">
        <ele>111.65</ele>
        <time>2017-06-14T15:06:28Z</time>
      </trkpt>
      <trkpt lat="49.15705" lon="1.44968">
        <ele>108.29</ele>
        <time>2017-06-14T15:06:34Z</time>
      </trkpt>
      <trkpt lat="49.1571" lon="1.44964">
        <ele>109.73</ele>
        <time>2017-06-14T15:06:36Z</time>
      </trkpt>
      <trkpt lat="49.15713" lon="1.44961">
        <ele>109.73</ele>
        <time>2017-06-14T15:06:37Z</time>
      </trkpt>
      <trkpt lat="49.15732" lon="1.4492">
        <ele>113.09</ele>
        <time>2017-06-14T15:06:44Z</time>
      </trkpt>
      <trkpt lat="49.15761" lon="1.4488">
        <ele>114.05</ele>
        <time>2017-06-14T15:06:57Z</time>
      </trkpt>
      <trkpt lat="49.1577" lon="1.44851">
        <ele>111.17</ele>
        <time>2017-06-14T15:07:04Z</time>
      </trkpt>
      <trkpt lat="49.15778" lon="1.44828">
        <ele>107.81</ele>
        <time>2017-06-14T15:07:10Z</time>
      </trkpt>
      <trkpt lat="49.15782" lon="1.44818">
        <ele>106.36</ele>
        <time>2017-06-14T15:07:13Z</time>
      </trkpt>
      <trkpt lat="49.15786" lon="1.44805">
        <ele>105.4</ele>
        <time>2017-06-14T15:07:16Z</time>
      </trkpt>
      <trkpt lat="49.15787" lon="1.44799">
        <ele>104.92</ele>
        <time>2017-06-14T15:07:17Z</time>
      </trkpt>
      <trkpt lat="49.15792" lon="1.44766">
        <ele>101.08</ele>
        <time>2017-06-14T15:07:24Z</time>
      </trkpt>
      <trkpt lat="49.15802" lon="1.44727">
        <ele>97.71</ele>
        <time>2017-06-14T15:07:32Z</time>
      </trkpt>
      <trkpt lat="49.15818" lon="1.44682">
        <ele>94.35</ele>
        <time>2017-06-14T15:07:40Z</time>
      </trkpt>
      <trkpt lat="49.15836" lon="1.44637">
        <ele>90.98</ele>
        <time>2017-06-14T15:07:48Z</time>
      </trkpt>
      <trkpt lat="49.15851" lon="1.44607">
        <ele>87.62</ele>
        <time>2017-06-14T15:07:55Z</time>
      </trkpt>
      <trkpt lat="49.15886" lon="1.44562">
        <ele>84.73</ele>
        <time>2017-06-14T15:08:06Z</time>
      </trkpt>
      <trkpt lat="49.15916" lon="1.44536">
        <ele>81.85</ele>
        <time>2017-06-14T15:08:14Z</time>
      </trkpt>
      <trkpt lat="49.15936" lon="1.44513">
        <ele>78.48</ele>
        <time>2017-06-14T15:08:20Z</time>
      </trkpt>
      <trkpt lat="49.15964" lon="1.44485">
        <ele>75.12</ele>
        <time>2017-06-14T15:08:28Z</time>
      </trkpt>
      <trkpt lat="49.15966" lon="1.44481">
        <ele>74.64</ele>
        <time>2017-06-14T15:08:29Z</time>
      </trkpt>
      <trkpt lat="49.15975" lon="1.44469">
        <ele>73.2</ele>
        <time>2017-06-14T15:08:32Z</time>
      </trkpt>
      <trkpt lat="49.15989" lon="1.44449">
        <ele>71.27</ele>
        <time>2017-06-14T15:08:36Z</time>
      </trkpt>
      <trkpt lat="49.16004" lon="1.44419">
        <ele>68.39</ele>
        <time>2017-06-14T15:08:41Z</time>
      </trkpt>
      <trkpt lat="49.16008" lon="1.44412">
        <ele>67.91</ele>
        <time>2017-06-14T15:08:42Z</time>
      </trkpt>
      <trkpt lat="49.16024" lon="1.44381">
        <ele>65.51</ele>
        <time>2017-06-14T15:08:47Z</time>
      </trkpt>
      <trkpt lat="49.16038" lon="1.44363">
        <ele>64.55</ele>
        <time>2017-06-14T15:08:56Z</time>
      </trkpt>
      <trkpt lat="49.16039" lon="1.44363">
        <ele>60.7</ele>
        <time>2017-06-14T15:09:22Z</time>
      </trkpt>
      <trkpt lat="49.16039" lon="1.44363">
        <ele>60.7</ele>
        <time>2017-06-14T15:09:23Z</time>
      </trkpt>
      <trkpt lat="49.16039" lon="1.44363">
        <ele>65.99</ele>
        <time>2017-06-14T15:09:24Z</time>
      </trkpt>
      <trkpt lat="49.16039" lon="1.44363">
        <ele>63.1</ele>
        <time>2017-06-14T15:09:25Z</time>
      </trkpt>
      <trkpt lat="49.16039" lon="1.44363">
        <ele>65.99</ele>
        <time>2017-06-14T15:09:27Z</time>
      </trkpt>
      <trkpt lat="49.16039" lon="1.44363">
        <ele>61.18</ele>
        <time>2017-06-14T15:09:28Z</time>
      </trkpt>
      <trkpt lat="49.16039" lon="1.44363">
        <ele>65.99</ele>
        <time>2017-06-14T15:09:29Z</time>
      </trkpt>
      <trkpt lat="49.1604" lon="1.44362">
        <ele>63.58</ele>
        <time>2017-06-14T15:09:32Z</time>
      </trkpt>
      <trkpt lat="49.16042" lon="1.44363">
        <ele>66.95</ele>
        <time>2017-06-14T15:09:53Z</time>
      </trkpt>
      <trkpt lat="49.16042" lon="1.44363">
        <ele>63.58</ele>
        <time>2017-06-14T15:09:54Z</time>
      </trkpt>
      <trkpt lat="49.16041" lon="1.44366">
        <ele>63.58</ele>
        <time>2017-06-14T15:10:06Z</time>
      </trkpt>
      <trkpt lat="49.16042" lon="1.44366">
        <ele>62.62</ele>
        <time>2017-06-14T15:10:07Z</time>
      </trkpt>
      <trkpt lat="49.16044" lon="1.44364">
        <ele>63.1</ele>
        <time>2017-06-14T15:10:08Z</time>
      </trkpt>
      <trkpt lat="49.16046" lon="1.44363">
        <ele>63.1</ele>
        <time>2017-06-14T15:10:09Z</time>
      </trkpt>
      <trkpt lat="49.16048" lon="1.4436">
        <ele>63.1</ele>
        <time>2017-06-14T15:10:10Z</time>
      </trkpt>
      <trkpt lat="49.16049" lon="1.44357">
        <ele>63.1</ele>
        <time>2017-06-14T15:10:11Z</time>
      </trkpt>
      <trkpt lat="49.16051" lon="1.44354">
        <ele>61.66</ele>
        <time>2017-06-14T15:10:12Z</time>
      </trkpt>
      <trkpt lat="49.16076" lon="1.44313">
        <ele>58.78</ele>
        <time>2017-06-14T15:10:21Z</time>
      </trkpt>
      <trkpt lat="49.16097" lon="1.44278">
        <ele>56.86</ele>
        <time>2017-06-14T15:10:28Z</time>
      </trkpt>
      <trkpt lat="49.16119" lon="1.44242">
        <ele>53.97</ele>
        <time>2017-06-14T15:10:38Z</time>
      </trkpt>
      <trkpt lat="49.1612" lon="1.44238">
        <ele>53.49</ele>
        <time>2017-06-14T15:10:39Z</time>
      </trkpt>
      <trkpt lat="49.1612" lon="1.44235">
        <ele>53.01</ele>
        <time>2017-06-14T15:10:40Z</time>
      </trkpt>
      <trkpt lat="49.16101" lon="1.44182">
        <ele>51.09</ele>
        <time>2017-06-14T15:10:51Z</time>
      </trkpt>
      <trkpt lat="49.16098" lon="1.44176">
        <ele>51.09</ele>
        <time>2017-06-14T15:10:52Z</time>
      </trkpt>
      <trkpt lat="49.16096" lon="1.4417">
        <ele>51.09</ele>
        <time>2017-06-14T15:10:53Z</time>
      </trkpt>
      <trkpt lat="49.16076" lon="1.44105">
        <ele>47.72</ele>
        <time>2017-06-14T15:11:01Z</time>
      </trkpt>
      <trkpt lat="49.16031" lon="1.44002">
        <ele>46.76</ele>
        <time>2017-06-14T15:11:14Z</time>
      </trkpt>
      <trkpt lat="49.16033" lon="1.44004">
        <ele>46.76</ele>
        <time>2017-06-14T15:11:25Z</time>
      </trkpt>
      <trkpt lat="49.1603" lon="1.44002">
        <ele>46.28</ele>
        <time>2017-06-14T15:11:34Z</time>
      </trkpt>
      <trkpt lat="49.16028" lon="1.44001">
        <ele>46.76</ele>
        <time>2017-06-14T15:11:35Z</time>
      </trkpt>
      <trkpt lat="49.16025" lon="1.43999">
        <ele>46.28</ele>
        <time>2017-06-14T15:11:36Z</time>
      </trkpt>
      <trkpt lat="49.1599" lon="1.4396">
        <ele>46.76</ele>
        <time>2017-06-14T15:11:48Z</time>
      </trkpt>
      <trkpt lat="49.15929" lon="1.43896">
        <ele>44.84</ele>
        <time>2017-06-14T15:12:05Z</time>
      </trkpt>
      <trkpt lat="49.15896" lon="1.43861">
        <ele>44.84</ele>
        <time>2017-06-14T15:12:16Z</time>
      </trkpt>
      <trkpt lat="49.15857" lon="1.43784">
        <ele>43.88</ele>
        <time>2017-06-14T15:12:33Z</time>
      </trkpt>
      <trkpt lat="49.1585" lon="1.43694">
        <ele>43.4</ele>
        <time>2017-06-14T15:12:47Z</time>
      </trkpt>
      <trkpt lat="49.15812" lon="1.4361">
        <ele>41.95</ele>
        <time>2017-06-14T15:13:04Z</time>
      </trkpt>
      <trkpt lat="49.15756" lon="1.43535">
        <ele>40.51</ele>
        <time>2017-06-14T15:13:21Z</time>
      </trkpt>
      <trkpt lat="49.15719" lon="1.43485">
        <ele>39.55</ele>
        <time>2017-06-14T15:13:35Z</time>
      </trkpt>
      <trkpt lat="49.15679" lon="1.43426">
        <ele>39.07</ele>
        <time>2017-06-14T15:13:50Z</time>
      </trkpt>
      <trkpt lat="49.15605" lon="1.43329">
        <ele>38.11</ele>
        <time>2017-06-14T15:14:11Z</time>
      </trkpt>
      <trkpt lat="49.15599" lon="1.43319">
        <ele>38.11</ele>
        <time>2017-06-14T15:14:13Z</time>
      </trkpt>
      <trkpt lat="49.15596" lon="1.43314">
        <ele>37.63</ele>
        <time>2017-06-14T15:14:14Z</time>
      </trkpt>
      <trkpt lat="49.15594" lon="1.43308">
        <ele>37.63</ele>
        <time>2017-06-14T15:14:15Z</time>
      </trkpt>
      <trkpt lat="49.15593" lon="1.43301">
        <ele>37.15</ele>
        <time>2017-06-14T15:14:16Z</time>
      </trkpt>
      <trkpt lat="49.15593" lon="1.43295">
        <ele>37.15</ele>
        <time>2017-06-14T15:14:17Z</time>
      </trkpt>
      <trkpt lat="49.15592" lon="1.43288">
        <ele>37.15</ele>
        <time>2017-06-14T15:14:18Z</time>
      </trkpt>
      <trkpt lat="49.15582" lon="1.43201">
        <ele>36.19</ele>
        <time>2017-06-14T15:14:32Z</time>
      </trkpt>
      <trkpt lat="49.15573" lon="1.43131">
        <ele>36.19</ele>
        <time>2017-06-14T15:14:43Z</time>
      </trkpt>
      <trkpt lat="49.1557" lon="1.43124">
        <ele>36.19</ele>
        <time>2017-06-14T15:14:44Z</time>
      </trkpt>
      <trkpt lat="49.15565" lon="1.43114">
        <ele>35.23</ele>
        <time>2017-06-14T15:14:46Z</time>
      </trkpt>
      <trkpt lat="49.15552" lon="1.43096">
        <ele>35.23</ele>
        <time>2017-06-14T15:14:50Z</time>
      </trkpt>
      <trkpt lat="49.15491" lon="1.43009">
        <ele>35.23</ele>
        <time>2017-06-14T15:15:09Z</time>
      </trkpt>
      <trkpt lat="49.15468" lon="1.42975">
        <ele>34.74</ele>
        <time>2017-06-14T15:15:16Z</time>
      </trkpt>
      <trkpt lat="49.15414" lon="1.4291">
        <ele>34.74</ele>
        <time>2017-06-14T15:15:31Z</time>
      </trkpt>
      <trkpt lat="49.15354" lon="1.42823">
        <ele>33.78</ele>
        <time>2017-06-14T15:15:49Z</time>
      </trkpt>
      <trkpt lat="49.15302" lon="1.42754">
        <ele>33.78</ele>
        <time>2017-06-14T15:16:03Z</time>
      </trkpt>
      <trkpt lat="49.15267" lon="1.42705">
        <ele>33.78</ele>
        <time>2017-06-14T15:16:16Z</time>
      </trkpt>
      <trkpt lat="49.15212" lon="1.4261">
        <ele>32.82</ele>
        <time>2017-06-14T15:16:34Z</time>
      </trkpt>
      <trkpt lat="49.15168" lon="1.42539">
        <ele>32.34</ele>
        <time>2017-06-14T15:16:45Z</time>
      </trkpt>
      <trkpt lat="49.15141" lon="1.42495">
        <ele>30.9</ele>
        <time>2017-06-14T15:16:55Z</time>
      </trkpt>
      <trkpt lat="49.15139" lon="1.42494">
        <ele>31.38</ele>
        <time>2017-06-14T15:16:56Z</time>
      </trkpt>
      <trkpt lat="49.15136" lon="1.42495">
        <ele>30.9</ele>
        <time>2017-06-14T15:16:57Z</time>
      </trkpt>
      <trkpt lat="49.15134" lon="1.42496">
        <ele>30.9</ele>
        <time>2017-06-14T15:16:58Z</time>
      </trkpt>
      <trkpt lat="49.15131" lon="1.42497">
        <ele>30.9</ele>
        <time>2017-06-14T15:16:59Z</time>
      </trkpt>
      <trkpt lat="49.1507" lon="1.42527">
        <ele>29.94</ele>
        <time>2017-06-14T15:17:15Z</time>
      </trkpt>
      <trkpt lat="49.15049" lon="1.42539">
        <ele>28.98</ele>
        <time>2017-06-14T15:17:20Z</time>
      </trkpt>
      <trkpt lat="49.15033" lon="1.42548">
        <ele>31.38</ele>
        <time>2017-06-14T15:17:24Z</time>
      </trkpt>
      <trkpt lat="49.14958" lon="1.42599">
        <ele>30.9</ele>
        <time>2017-06-14T15:17:41Z</time>
      </trkpt>
      <trkpt lat="49.14858" lon="1.4265">
        <ele>29.46</ele>
        <time>2017-06-14T15:18:01Z</time>
      </trkpt>
      <trkpt lat="49.14763" lon="1.4271">
        <ele>29.94</ele>
        <time>2017-06-14T15:18:21Z</time>
      </trkpt>
      <trkpt lat="49.1471" lon="1.42782">
        <ele>29.94</ele>
        <time>2017-06-14T15:18:37Z</time>
      </trkpt>
      <trkpt lat="49.14702" lon="1.42789">
        <ele>30.42</ele>
        <time>2017-06-14T15:18:40Z</time>
      </trkpt>
      <trkpt lat="49.14698" lon="1.42787">
        <ele>29.46</ele>
        <time>2017-06-14T15:18:41Z</time>
      </trkpt>
      <trkpt lat="49.14695" lon="1.42784">
        <ele>28.98</ele>
        <time>2017-06-14T15:18:42Z</time>
      </trkpt>
      <trkpt lat="49.14691" lon="1.42778">
        <ele>28.98</ele>
        <time>2017-06-14T15:18:43Z</time>
      </trkpt>
      <trkpt lat="49.14687" lon="1.42773">
        <ele>28.98</ele>
        <time>2017-06-14T15:18:44Z</time>
      </trkpt>
      <trkpt lat="49.14641" lon="1.427">
        <ele>28.98</ele>
        <time>2017-06-14T15:18:59Z</time>
      </trkpt>
      <trkpt lat="49.14603" lon="1.42644">
        <ele>29.94</ele>
        <time>2017-06-14T15:19:12Z</time>
      </trkpt>
      <trkpt lat="49.14569" lon="1.42595">
        <ele>29.94</ele>
        <time>2017-06-14T15:19:25Z</time>
      </trkpt>
      <trkpt lat="49.14565" lon="1.42596">
        <ele>29.94</ele>
        <time>2017-06-14T15:19:26Z</time>
      </trkpt>
      <trkpt lat="49.1456" lon="1.42599">
        <ele>29.94</ele>
        <time>2017-06-14T15:19:27Z</time>
      </trkpt>
      <trkpt lat="49.14557" lon="1.42603">
        <ele>29.94</ele>
        <time>2017-06-14T15:19:28Z</time>
      </trkpt>
      <trkpt lat="49.14553" lon="1.42606">
        <ele>29.94</ele>
        <time>2017-06-14T15:19:29Z</time>
      </trkpt>
      <trkpt lat="49.1455" lon="1.4261">
        <ele>29.94</ele>
        <time>2017-06-14T15:19:30Z</time>
      </trkpt>
      <trkpt lat="49.14546" lon="1.42614">
        <ele>30.42</ele>
        <time>2017-06-14T15:19:31Z</time>
      </trkpt>
      <trkpt lat="49.14478" lon="1.42682">
        <ele>30.42</ele>
        <time>2017-06-14T15:19:51Z</time>
      </trkpt>
      <trkpt lat="49.14402" lon="1.42755">
        <ele>29.94</ele>
        <time>2017-06-14T15:20:11Z</time>
      </trkpt>
      <trkpt lat="49.14378" lon="1.42745">
        <ele>28.98</ele>
        <time>2017-06-14T15:20:19Z</time>
      </trkpt>
      <trkpt lat="49.14377" lon="1.42738">
        <ele>28.5</ele>
        <time>2017-06-14T15:20:20Z</time>
      </trkpt>
      <trkpt lat="49.14368" lon="1.42695">
        <ele>27.05</ele>
        <time>2017-06-14T15:20:27Z</time>
      </trkpt>
      <trkpt lat="49.14339" lon="1.42611">
        <ele>25.13</ele>
        <time>2017-06-14T15:20:41Z</time>
      </trkpt>
      <trkpt lat="49.14334" lon="1.426">
        <ele>25.13</ele>
        <time>2017-06-14T15:20:46Z</time>
      </trkpt>
      <trkpt lat="49.14332" lon="1.42598">
        <ele>25.13</ele>
        <time>2017-06-14T15:20:47Z</time>
      </trkpt>
      <trkpt lat="49.14329" lon="1.426">
        <ele>25.13</ele>
        <time>2017-06-14T15:20:48Z</time>
      </trkpt>
      <trkpt lat="49.14323" lon="1.42607">
        <ele>25.13</ele>
        <time>2017-06-14T15:20:51Z</time>
      </trkpt>
      <trkpt lat="49.14283" lon="1.42645">
        <ele>26.09</ele>
        <time>2017-06-14T15:21:06Z</time>
      </trkpt>
      <trkpt lat="49.14235" lon="1.4267">
        <ele>25.61</ele>
        <time>2017-06-14T15:21:23Z</time>
      </trkpt>
      <trkpt lat="49.14181" lon="1.42709">
        <ele>26.09</ele>
        <time>2017-06-14T15:21:38Z</time>
      </trkpt>
      <trkpt lat="49.14123" lon="1.42769">
        <ele>24.65</ele>
        <time>2017-06-14T15:21:55Z</time>
      </trkpt>
      <trkpt lat="49.14085" lon="1.42813">
        <ele>24.65</ele>
        <time>2017-06-14T15:22:09Z</time>
      </trkpt>
      <trkpt lat="49.14079" lon="1.42826">
        <ele>24.17</ele>
        <time>2017-06-14T15:22:13Z</time>
      </trkpt>
      <trkpt lat="49.14063" lon="1.42851">
        <ele>25.13</ele>
        <time>2017-06-14T15:22:20Z</time>
      </trkpt>
      <trkpt lat="49.1406" lon="1.42869">
        <ele>24.65</ele>
        <time>2017-06-14T15:22:26Z</time>
      </trkpt>
      <trkpt lat="49.1403" lon="1.42919">
        <ele>24.65</ele>
        <time>2017-06-14T15:22:40Z</time>
      </trkpt>
      <trkpt lat="49.14019" lon="1.42936">
        <ele>24.65</ele>
        <time>2017-06-14T15:22:52Z</time>
      </trkpt>
      <trkpt lat="49.14017" lon="1.42937">
        <ele>24.65</ele>
        <time>2017-06-14T15:22:56Z</time>
      </trkpt>
      <trkpt lat="49.14017" lon="1.42952">
        <ele>24.65</ele>
        <time>2017-06-14T15:23:09Z</time>
      </trkpt>
      <trkpt lat="49.14012" lon="1.42956">
        <ele>24.65</ele>
        <time>2017-06-14T15:23:25Z</time>
      </trkpt>
      <trkpt lat="49.14013" lon="1.42956">
        <ele>24.17</ele>
        <time>2017-06-14T15:23:39Z</time>
      </trkpt>
      <trkpt lat="49.14014" lon="1.42959">
        <ele>23.69</ele>
        <time>2017-06-14T15:24:09Z</time>
      </trkpt>
      <trkpt lat="49.14014" lon="1.42958">
        <ele>8.79</ele>
        <time>2017-06-14T15:24:21Z</time>
      </trkpt>
      <trkpt lat="49.14014" lon="1.42958">
        <ele>36.19</ele>
        <time>2017-06-14T15:24:22Z</time>
      </trkpt>
      <trkpt lat="49.14013" lon="1.42958">
        <ele>36.19</ele>
        <time>2017-06-14T15:24:23Z</time>
      </trkpt>
      <trkpt lat="49.14013" lon="1.42958">
        <ele>25.61</ele>
        <time>2017-06-14T15:24:24Z</time>
      </trkpt>
      <trkpt lat="49.14013" lon="1.42957">
        <ele>23.69</ele>
        <time>2017-06-14T15:24:26Z</time>
      </trkpt>
      <trkpt lat="49.14012" lon="1.42954">
        <ele>23.21</ele>
        <time>2017-06-14T15:25:01Z</time>
      </trkpt>
      <trkpt lat="49.14014" lon="1.42958">
        <ele>23.21</ele>
        <time>2017-06-14T15:25:32Z</time>
      </trkpt>
      <trkpt lat="49.14014" lon="1.42958">
        <ele>24.65</ele>
        <time>2017-06-14T15:25:50Z</time>
      </trkpt>
      <trkpt lat="49.14014" lon="1.42956">
        <ele>24.65</ele>
        <time>2017-06-14T15:26:01Z</time>
      </trkpt>
      <trkpt lat="49.14013" lon="1.42957">
        <ele>24.17</ele>
        <time>2017-06-14T15:26:15Z</time>
      </trkpt>
      <trkpt lat="49.14011" lon="1.42957">
        <ele>24.17</ele>
        <time>2017-06-14T15:26:20Z</time>
      </trkpt>
      <trkpt lat="49.14004" lon="1.42958">
        <ele>24.65</ele>
        <time>2017-06-14T15:26:26Z</time>
      </trkpt>
      <trkpt lat="49.13976" lon="1.4301">
        <ele>24.65</ele>
        <time>2017-06-14T15:26:41Z</time>
      </trkpt>
      <trkpt lat="49.13937" lon="1.43064">
        <ele>24.65</ele>
        <time>2017-06-14T15:26:57Z</time>
      </trkpt>
      <trkpt lat="49.13906" lon="1.43117">
        <ele>24.65</ele>
        <time>2017-06-14T15:27:11Z</time>
      </trkpt>
      <trkpt lat="49.1387" lon="1.43174">
        <ele>24.17</ele>
        <time>2017-06-14T15:27:26Z</time>
      </trkpt>
      <trkpt lat="49.1383" lon="1.43229">
        <ele>24.17</ele>
        <time>2017-06-14T15:27:40Z</time>
      </trkpt>
      <trkpt lat="49.13791" lon="1.43283">
        <ele>24.65</ele>
        <time>2017-06-14T15:27:54Z</time>
      </trkpt>
      <trkpt lat="49.13758" lon="1.43328">
        <ele>24.17</ele>
        <time>2017-06-14T15:28:06Z</time>
      </trkpt>
      <trkpt lat="49.13731" lon="1.43363">
        <ele>24.17</ele>
        <time>2017-06-14T15:28:17Z</time>
      </trkpt>
      <trkpt lat="49.13722" lon="1.43369">
        <ele>23.69</ele>
        <time>2017-06-14T15:28:26Z</time>
      </trkpt>
      <trkpt lat="49.1372" lon="1.43371">
        <ele>23.69</ele>
        <time>2017-06-14T15:28:31Z</time>
      </trkpt>
      <trkpt lat="49.13715" lon="1.43379">
        <ele>23.69</ele>
        <time>2017-06-14T15:28:35Z</time>
      </trkpt>
      <trkpt lat="49.13684" lon="1.43421">
        <ele>24.17</ele>
        <time>2017-06-14T15:28:49Z</time>
      </trkpt>
      <trkpt lat="49.13653" lon="1.4346">
        <ele>23.69</ele>
        <time>2017-06-14T15:29:02Z</time>
      </trkpt>
      <trkpt lat="49.13621" lon="1.43501">
        <ele>23.69</ele>
        <time>2017-06-14T15:29:15Z</time>
      </trkpt>
      <trkpt lat="49.1359" lon="1.43546">
        <ele>23.21</ele>
        <time>2017-06-14T15:29:29Z</time>
      </trkpt>
      <trkpt lat="49.13563" lon="1.43577">
        <ele>23.21</ele>
        <time>2017-06-14T15:29:41Z</time>
      </trkpt>
      <trkpt lat="49.1353" lon="1.43618">
        <ele>23.21</ele>
        <time>2017-06-14T15:29:55Z</time>
      </trkpt>
      <trkpt lat="49.13498" lon="1.43658">
        <ele>23.69</ele>
        <time>2017-06-14T15:30:07Z</time>
      </trkpt>
      <trkpt lat="49.13472" lon="1.43699">
        <ele>23.21</ele>
        <time>2017-06-14T15:30:19Z</time>
      </trkpt>
      <trkpt lat="49.1344" lon="1.43735">
        <ele>23.21</ele>
        <time>2017-06-14T15:30:32Z</time>
      </trkpt>
      <trkpt lat="49.13409" lon="1.43771">
        <ele>23.21</ele>
        <time>2017-06-14T15:30:44Z</time>
      </trkpt>
      <trkpt lat="49.13374" lon="1.43812">
        <ele>22.73</ele>
        <time>2017-06-14T15:30:57Z</time>
      </trkpt>
      <trkpt lat="49.13334" lon="1.43847">
        <ele>22.73</ele>
        <time>2017-06-14T15:31:09Z</time>
      </trkpt>
      <trkpt lat="49.13296" lon="1.43888">
        <ele>22.73</ele>
        <time>2017-06-14T15:31:21Z</time>
      </trkpt>
      <trkpt lat="49.13273" lon="1.43912">
        <ele>22.25</ele>
        <time>2017-06-14T15:31:33Z</time>
      </trkpt>
      <trkpt lat="49.13265" lon="1.43925">
        <ele>22.73</ele>
        <time>2017-06-14T15:31:43Z</time>
      </trkpt>
      <trkpt lat="49.13263" lon="1.43927">
        <ele>22.73</ele>
        <time>2017-06-14T15:31:44Z</time>
      </trkpt>
      <trkpt lat="49.13261" lon="1.4393">
        <ele>22.25</ele>
        <time>2017-06-14T15:31:45Z</time>
      </trkpt>
      <trkpt lat="49.1323" lon="1.43974">
        <ele>22.73</ele>
        <time>2017-06-14T15:31:59Z</time>
      </trkpt>
      <trkpt lat="49.132" lon="1.44014">
        <ele>22.73</ele>
        <time>2017-06-14T15:32:12Z</time>
      </trkpt>
      <trkpt lat="49.13172" lon="1.44029">
        <ele>22.25</ele>
        <time>2017-06-14T15:32:22Z</time>
      </trkpt>
      <trkpt lat="49.13126" lon="1.44057">
        <ele>22.25</ele>
        <time>2017-06-14T15:32:36Z</time>
      </trkpt>
      <trkpt lat="49.1309" lon="1.44104">
        <ele>22.25</ele>
        <time>2017-06-14T15:32:51Z</time>
      </trkpt>
      <trkpt lat="49.13069" lon="1.44154">
        <ele>22.25</ele>
        <time>2017-06-14T15:33:03Z</time>
      </trkpt>
      <trkpt lat="49.13044" lon="1.4419">
        <ele>22.73</ele>
        <time>2017-06-14T15:33:15Z</time>
      </trkpt>
      <trkpt lat="49.13006" lon="1.44226">
        <ele>22.25</ele>
        <time>2017-06-14T15:33:28Z</time>
      </trkpt>
      <trkpt lat="49.1297" lon="1.44273">
        <ele>22.25</ele>
        <time>2017-06-14T15:33:42Z</time>
      </trkpt>
      <trkpt lat="49.12937" lon="1.44316">
        <ele>22.25</ele>
        <time>2017-06-14T15:33:55Z</time>
      </trkpt>
      <trkpt lat="49.1291" lon="1.44373">
        <ele>22.25</ele>
        <time>2017-06-14T15:34:08Z</time>
      </trkpt>
      <trkpt lat="49.12885" lon="1.44425">
        <ele>22.25</ele>
        <time>2017-06-14T15:34:20Z</time>
      </trkpt>
      <trkpt lat="49.1286" lon="1.44468">
        <ele>22.25</ele>
        <time>2017-06-14T15:34:30Z</time>
      </trkpt>
      <trkpt lat="49.12827" lon="1.44517">
        <ele>22.25</ele>
        <time>2017-06-14T15:34:42Z</time>
      </trkpt>
      <trkpt lat="49.12798" lon="1.44552">
        <ele>21.77</ele>
        <time>2017-06-14T15:34:50Z</time>
      </trkpt>
      <trkpt lat="49.12794" lon="1.44556">
        <ele>21.29</ele>
        <time>2017-06-14T15:34:51Z</time>
      </trkpt>
      <trkpt lat="49.1279" lon="1.44561">
        <ele>21.29</ele>
        <time>2017-06-14T15:34:52Z</time>
      </trkpt>
      <trkpt lat="49.12787" lon="1.44566">
        <ele>21.29</ele>
        <time>2017-06-14T15:34:53Z</time>
      </trkpt>
      <trkpt lat="49.12784" lon="1.44571">
        <ele>21.29</ele>
        <time>2017-06-14T15:34:54Z</time>
      </trkpt>
      <trkpt lat="49.12743" lon="1.44635">
        <ele>21.77</ele>
        <time>2017-06-14T15:35:08Z</time>
      </trkpt>
      <trkpt lat="49.12714" lon="1.44692">
        <ele>21.77</ele>
        <time>2017-06-14T15:35:20Z</time>
      </trkpt>
      <trkpt lat="49.12689" lon="1.44721">
        <ele>21.29</ele>
        <time>2017-06-14T15:35:27Z</time>
      </trkpt>
      <trkpt lat="49.12686" lon="1.44727">
        <ele>21.29</ele>
        <time>2017-06-14T15:35:28Z</time>
      </trkpt>
      <trkpt lat="49.12665" lon="1.44758">
        <ele>21.77</ele>
        <time>2017-06-14T15:35:35Z</time>
      </trkpt>
      <trkpt lat="49.12662" lon="1.44762">
        <ele>21.77</ele>
        <time>2017-06-14T15:35:36Z</time>
      </trkpt>
      <trkpt lat="49.12655" lon="1.44772">
        <ele>21.29</ele>
        <time>2017-06-14T15:35:38Z</time>
      </trkpt>
      <trkpt lat="49.12645" lon="1.44802">
        <ele>21.29</ele>
        <time>2017-06-14T15:35:43Z</time>
      </trkpt>
      <trkpt lat="49.12603" lon="1.44879">
        <ele>21.29</ele>
        <time>2017-06-14T15:35:58Z</time>
      </trkpt>
      <trkpt lat="49.12571" lon="1.44926">
        <ele>21.29</ele>
        <time>2017-06-14T15:36:08Z</time>
      </trkpt>
      <trkpt lat="49.12568" lon="1.4493">
        <ele>20.81</ele>
        <time>2017-06-14T15:36:09Z</time>
      </trkpt>
      <trkpt lat="49.12543" lon="1.44959">
        <ele>21.29</ele>
        <time>2017-06-14T15:36:16Z</time>
      </trkpt>
      <trkpt lat="49.1254" lon="1.44963">
        <ele>21.77</ele>
        <time>2017-06-14T15:36:17Z</time>
      </trkpt>
      <trkpt lat="49.12536" lon="1.44968">
        <ele>20.81</ele>
        <time>2017-06-14T15:36:18Z</time>
      </trkpt>
      <trkpt lat="49.125" lon="1.45014">
        <ele>20.32</ele>
        <time>2017-06-14T15:36:30Z</time>
      </trkpt>
      <trkpt lat="49.12469" lon="1.45044">
        <ele>20.32</ele>
        <time>2017-06-14T15:36:41Z</time>
      </trkpt>
      <trkpt lat="49.12434" lon="1.45063">
        <ele>20.32</ele>
        <time>2017-06-14T15:36:51Z</time>
      </trkpt>
      <trkpt lat="49.12399" lon="1.45104">
        <ele>20.81</ele>
        <time>2017-06-14T15:37:03Z</time>
      </trkpt>
      <trkpt lat="49.12369" lon="1.4516">
        <ele>20.81</ele>
        <time>2017-06-14T15:37:15Z</time>
      </trkpt>
      <trkpt lat="49.12365" lon="1.45164">
        <ele>20.81</ele>
        <time>2017-06-14T15:37:16Z</time>
      </trkpt>
      <trkpt lat="49.12363" lon="1.45169">
        <ele>20.81</ele>
        <time>2017-06-14T15:37:17Z</time>
      </trkpt>
      <trkpt lat="49.1236" lon="1.45173">
        <ele>21.29</ele>
        <time>2017-06-14T15:37:18Z</time>
      </trkpt>
      <trkpt lat="49.12357" lon="1.45178">
        <ele>20.81</ele>
        <time>2017-06-14T15:37:19Z</time>
      </trkpt>
      <trkpt lat="49.12332" lon="1.4524">
        <ele>20.81</ele>
        <time>2017-06-14T15:37:30Z</time>
      </trkpt>
      <trkpt lat="49.12305" lon="1.45312">
        <ele>20.32</ele>
        <time>2017-06-14T15:37:42Z</time>
      </trkpt>
      <trkpt lat="49.12282" lon="1.45364">
        <ele>20.32</ele>
        <time>2017-06-14T15:37:50Z</time>
      </trkpt>
      <trkpt lat="49.12269" lon="1.45389">
        <ele>19.84</ele>
        <time>2017-06-14T15:37:54Z</time>
      </trkpt>
      <trkpt lat="49.12255" lon="1.45419">
        <ele>20.32</ele>
        <time>2017-06-14T15:37:59Z</time>
      </trkpt>
      <trkpt lat="49.1221" lon="1.45509">
        <ele>20.81</ele>
        <time>2017-06-14T15:38:14Z</time>
      </trkpt>
      <trkpt lat="49.12174" lon="1.45579">
        <ele>20.81</ele>
        <time>2017-06-14T15:38:26Z</time>
      </trkpt>
      <trkpt lat="49.12145" lon="1.45621">
        <ele>20.81</ele>
        <time>2017-06-14T15:38:34Z</time>
      </trkpt>
      <trkpt lat="49.12142" lon="1.45626">
        <ele>20.81</ele>
        <time>2017-06-14T15:38:35Z</time>
      </trkpt>
      <trkpt lat="49.1213" lon="1.45643">
        <ele>21.29</ele>
        <time>2017-06-14T15:38:38Z</time>
      </trkpt>
      <trkpt lat="49.1212" lon="1.45653">
        <ele>20.81</ele>
        <time>2017-06-14T15:38:40Z</time>
      </trkpt>
      <trkpt lat="49.12094" lon="1.45675">
        <ele>20.32</ele>
        <time>2017-06-14T15:38:45Z</time>
      </trkpt>
      <trkpt lat="49.12089" lon="1.45679">
        <ele>20.81</ele>
        <time>2017-06-14T15:38:46Z</time>
      </trkpt>
      <trkpt lat="49.12073" lon="1.45697">
        <ele>21.29</ele>
        <time>2017-06-14T15:38:50Z</time>
      </trkpt>
      <trkpt lat="49.12032" lon="1.45733">
        <ele>21.77</ele>
        <time>2017-06-14T15:38:59Z</time>
      </trkpt>
      <trkpt lat="49.11987" lon="1.45768">
        <ele>20.81</ele>
        <time>2017-06-14T15:39:08Z</time>
      </trkpt>
      <trkpt lat="49.11984" lon="1.45772">
        <ele>20.81</ele>
        <time>2017-06-14T15:39:09Z</time>
      </trkpt>
      <trkpt lat="49.11981" lon="1.45775">
        <ele>20.81</ele>
        <time>2017-06-14T15:39:10Z</time>
      </trkpt>
      <trkpt lat="49.11954" lon="1.45805">
        <ele>20.81</ele>
        <time>2017-06-14T15:39:19Z</time>
      </trkpt>
      <trkpt lat="49.1195" lon="1.45808">
        <ele>20.81</ele>
        <time>2017-06-14T15:39:20Z</time>
      </trkpt>
      <trkpt lat="49.11929" lon="1.45834">
        <ele>20.81</ele>
        <time>2017-06-14T15:39:26Z</time>
      </trkpt>
      <trkpt lat="49.11925" lon="1.45839">
        <ele>20.32</ele>
        <time>2017-06-14T15:39:27Z</time>
      </trkpt>
      <trkpt lat="49.11872" lon="1.45906">
        <ele>20.32</ele>
        <time>2017-06-14T15:39:42Z</time>
      </trkpt>
      <trkpt lat="49.11836" lon="1.45952">
        <ele>20.32</ele>
        <time>2017-06-14T15:39:55Z</time>
      </trkpt>
      <trkpt lat="49.11805" lon="1.46003">
        <ele>20.32</ele>
        <time>2017-06-14T15:40:07Z</time>
      </trkpt>
      <trkpt lat="49.11782" lon="1.46026">
        <ele>19.84</ele>
        <time>2017-06-14T15:40:16Z</time>
      </trkpt>
      <trkpt lat="49.1178" lon="1.46026">
        <ele>19.36</ele>
        <time>2017-06-14T15:40:17Z</time>
      </trkpt>
      <trkpt lat="49.11777" lon="1.46025">
        <ele>19.84</ele>
        <time>2017-06-14T15:40:19Z</time>
      </trkpt>
      <trkpt lat="49.11775" lon="1.46027">
        <ele>19.84</ele>
        <time>2017-06-14T15:40:20Z</time>
      </trkpt>
      <trkpt lat="49.11773" lon="1.46029">
        <ele>19.84</ele>
        <time>2017-06-14T15:40:21Z</time>
      </trkpt>
      <trkpt lat="49.11772" lon="1.46032">
        <ele>19.84</ele>
        <time>2017-06-14T15:40:22Z</time>
      </trkpt>
      <trkpt lat="49.1177" lon="1.46035">
        <ele>19.84</ele>
        <time>2017-06-14T15:40:23Z</time>
      </trkpt>
      <trkpt lat="49.11767" lon="1.46038">
        <ele>19.84</ele>
        <time>2017-06-14T15:40:24Z</time>
      </trkpt>
      <trkpt lat="49.11732" lon="1.46074">
        <ele>19.84</ele>
        <time>2017-06-14T15:40:37Z</time>
      </trkpt>
      <trkpt lat="49.11705" lon="1.46103">
        <ele>19.84</ele>
        <time>2017-06-14T15:40:48Z</time>
      </trkpt>
      <trkpt lat="49.11671" lon="1.4615">
        <ele>19.84</ele>
        <time>2017-06-14T15:41:01Z</time>
      </trkpt>
      <trkpt lat="49.11624" lon="1.46206">
        <ele>20.32</ele>
        <time>2017-06-14T15:41:16Z</time>
      </trkpt>
      <trkpt lat="49.11587" lon="1.46232">
        <ele>20.32</ele>
        <time>2017-06-14T15:41:28Z</time>
      </trkpt>
      <trkpt lat="49.1156" lon="1.46276">
        <ele>19.84</ele>
        <time>2017-06-14T15:41:41Z</time>
      </trkpt>
      <trkpt lat="49.11544" lon="1.4631">
        <ele>20.32</ele>
        <time>2017-06-14T15:41:52Z</time>
      </trkpt>
      <trkpt lat="49.11516" lon="1.46348">
        <ele>19.84</ele>
        <time>2017-06-14T15:42:05Z</time>
      </trkpt>
      <trkpt lat="49.11489" lon="1.46391">
        <ele>20.32</ele>
        <time>2017-06-14T15:42:18Z</time>
      </trkpt>
      <trkpt lat="49.11459" lon="1.46433">
        <ele>20.32</ele>
        <time>2017-06-14T15:42:30Z</time>
      </trkpt>
      <trkpt lat="49.1142" lon="1.46484">
        <ele>19.84</ele>
        <time>2017-06-14T15:42:45Z</time>
      </trkpt>
      <trkpt lat="49.11397" lon="1.46508">
        <ele>19.84</ele>
        <time>2017-06-14T15:42:55Z</time>
      </trkpt>
      <trkpt lat="49.11374" lon="1.46538">
        <ele>19.84</ele>
        <time>2017-06-14T15:43:05Z</time>
      </trkpt>
      <trkpt lat="49.11353" lon="1.46571">
        <ele>19.84</ele>
        <time>2017-06-14T15:43:17Z</time>
      </trkpt>
      <trkpt lat="49.11321" lon="1.46608">
        <ele>19.36</ele>
        <time>2017-06-14T15:43:30Z</time>
      </trkpt>
      <trkpt lat="49.11298" lon="1.46644">
        <ele>19.36</ele>
        <time>2017-06-14T15:43:42Z</time>
      </trkpt>
      <trkpt lat="49.11276" lon="1.46682">
        <ele>19.36</ele>
        <time>2017-06-14T15:43:54Z</time>
      </trkpt>
      <trkpt lat="49.11255" lon="1.46727">
        <ele>18.88</ele>
        <time>2017-06-14T15:44:07Z</time>
      </trkpt>
      <trkpt lat="49.11237" lon="1.46748">
        <ele>19.36</ele>
        <time>2017-06-14T15:44:17Z</time>
      </trkpt>
      <trkpt lat="49.11222" lon="1.46791">
        <ele>18.88</ele>
        <time>2017-06-14T15:44:29Z</time>
      </trkpt>
      <trkpt lat="49.11216" lon="1.46816">
        <ele>19.36</ele>
        <time>2017-06-14T15:44:36Z</time>
      </trkpt>
      <trkpt lat="49.11215" lon="1.4683">
        <ele>19.36</ele>
        <time>2017-06-14T15:44:41Z</time>
      </trkpt>
      <trkpt lat="49.11194" lon="1.46849">
        <ele>18.88</ele>
        <time>2017-06-14T15:44:52Z</time>
      </trkpt>
      <trkpt lat="49.11186" lon="1.46865">
        <ele>19.36</ele>
        <time>2017-06-14T15:45:01Z</time>
      </trkpt>
      <trkpt lat="49.11175" lon="1.46885">
        <ele>19.36</ele>
        <time>2017-06-14T15:45:12Z</time>
      </trkpt>
      <trkpt lat="49.11163" lon="1.46921">
        <ele>18.88</ele>
        <time>2017-06-14T15:45:23Z</time>
      </trkpt>
      <trkpt lat="49.11152" lon="1.46938">
        <ele>18.88</ele>
        <time>2017-06-14T15:45:33Z</time>
      </trkpt>
      <trkpt lat="49.11149" lon="1.46943">
        <ele>18.88</ele>
        <time>2017-06-14T15:45:44Z</time>
      </trkpt>
      <trkpt lat="49.11149" lon="1.46944">
        <ele>18.88</ele>
        <time>2017-06-14T15:45:45Z</time>
      </trkpt>
      <trkpt lat="49.1114" lon="1.46963">
        <ele>18.88</ele>
        <time>2017-06-14T15:45:54Z</time>
      </trkpt>
      <trkpt lat="49.11127" lon="1.46997">
        <ele>19.36</ele>
        <time>2017-06-14T15:46:06Z</time>
      </trkpt>
      <trkpt lat="49.11122" lon="1.4701">
        <ele>19.36</ele>
        <time>2017-06-14T15:46:11Z</time>
      </trkpt>
      <trkpt lat="49.11115" lon="1.4702">
        <ele>19.36</ele>
        <time>2017-06-14T15:46:16Z</time>
      </trkpt>
      <trkpt lat="49.11106" lon="1.47024">
        <ele>18.88</ele>
        <time>2017-06-14T15:46:26Z</time>
      </trkpt>
      <trkpt lat="49.11104" lon="1.47028">
        <ele>18.88</ele>
        <time>2017-06-14T15:46:44Z</time>
      </trkpt>
      <trkpt lat="49.11103" lon="1.47031">
        <ele>18.88</ele>
        <time>2017-06-14T15:46:55Z</time>
      </trkpt>
      <trkpt lat="49.111" lon="1.47033">
        <ele>19.36</ele>
        <time>2017-06-14T15:47:10Z</time>
      </trkpt>
      <trkpt lat="49.11099" lon="1.47033">
        <ele>18.4</ele>
        <time>2017-06-14T15:47:25Z</time>
      </trkpt>
      <trkpt lat="49.11094" lon="1.47041">
        <ele>17.92</ele>
        <time>2017-06-14T15:47:39Z</time>
      </trkpt>
      <trkpt lat="49.11092" lon="1.47046">
        <ele>18.4</ele>
        <time>2017-06-14T15:47:42Z</time>
      </trkpt>
      <trkpt lat="49.11082" lon="1.47065">
        <ele>18.88</ele>
        <time>2017-06-14T15:47:56Z</time>
      </trkpt>
      <trkpt lat="49.11072" lon="1.47086">
        <ele>19.36</ele>
        <time>2017-06-14T15:48:11Z</time>
      </trkpt>
      <trkpt lat="49.11067" lon="1.47091">
        <ele>18.88</ele>
        <time>2017-06-14T15:48:17Z</time>
      </trkpt>
      <trkpt lat="49.1106" lon="1.47099">
        <ele>19.36</ele>
        <time>2017-06-14T15:48:33Z</time>
      </trkpt>
      <trkpt lat="49.1105" lon="1.47108">
        <ele>18.88</ele>
        <time>2017-06-14T15:48:51Z</time>
      </trkpt>
      <trkpt lat="49.11043" lon="1.47113">
        <ele>17.92</ele>
        <time>2017-06-14T15:49:03Z</time>
      </trkpt>
      <trkpt lat="49.11042" lon="1.47112">
        <ele>17.44</ele>
        <time>2017-06-14T15:49:04Z</time>
      </trkpt>
      <trkpt lat="49.11037" lon="1.4711">
        <ele>17.44</ele>
        <time>2017-06-14T15:49:19Z</time>
      </trkpt>
      <trkpt lat="49.11034" lon="1.47116">
        <ele>16.48</ele>
        <time>2017-06-14T15:49:31Z</time>
      </trkpt>
      <trkpt lat="49.11029" lon="1.47121">
        <ele>17.44</ele>
        <time>2017-06-14T15:49:36Z</time>
      </trkpt>
      <trkpt lat="49.1102" lon="1.4714">
        <ele>17.44</ele>
        <time>2017-06-14T15:49:42Z</time>
      </trkpt>
      <trkpt lat="49.10995" lon="1.47189">
        <ele>17.44</ele>
        <time>2017-06-14T15:49:54Z</time>
      </trkpt>
      <trkpt lat="49.10972" lon="1.47219">
        <ele>16.96</ele>
        <time>2017-06-14T15:50:05Z</time>
      </trkpt>
      <trkpt lat="49.10945" lon="1.47267">
        <ele>17.92</ele>
        <time>2017-06-14T15:50:19Z</time>
      </trkpt>
      <trkpt lat="49.10917" lon="1.47304">
        <ele>16.96</ele>
        <time>2017-06-14T15:50:31Z</time>
      </trkpt>
      <trkpt lat="49.1089" lon="1.47334">
        <ele>17.44</ele>
        <time>2017-06-14T15:50:44Z</time>
      </trkpt>
      <trkpt lat="49.10863" lon="1.47358">
        <ele>17.44</ele>
        <time>2017-06-14T15:50:56Z</time>
      </trkpt>
      <trkpt lat="49.10849" lon="1.47368">
        <ele>17.44</ele>
        <time>2017-06-14T15:51:01Z</time>
      </trkpt>
      <trkpt lat="49.10823" lon="1.47403">
        <ele>17.92</ele>
        <time>2017-06-14T15:51:15Z</time>
      </trkpt>
      <trkpt lat="49.10804" lon="1.47423">
        <ele>17.92</ele>
        <time>2017-06-14T15:51:28Z</time>
      </trkpt>
      <trkpt lat="49.10781" lon="1.47448">
        <ele>17.92</ele>
        <time>2017-06-14T15:51:40Z</time>
      </trkpt>
      <trkpt lat="49.10762" lon="1.47469">
        <ele>17.44</ele>
        <time>2017-06-14T15:51:52Z</time>
      </trkpt>
      <trkpt lat="49.10759" lon="1.47468">
        <ele>17.44</ele>
        <time>2017-06-14T15:52:06Z</time>
      </trkpt>
      <trkpt lat="49.10756" lon="1.47466">
        <ele>17.44</ele>
        <time>2017-06-14T15:52:19Z</time>
      </trkpt>
      <trkpt lat="49.10741" lon="1.47484">
        <ele>17.44</ele>
        <time>2017-06-14T15:52:29Z</time>
      </trkpt>
      <trkpt lat="49.10714" lon="1.47484">
        <ele>17.44</ele>
        <time>2017-06-14T15:52:39Z</time>
      </trkpt>
      <trkpt lat="49.10699" lon="1.47499">
        <ele>17.92</ele>
        <time>2017-06-14T15:52:46Z</time>
      </trkpt>
      <trkpt lat="49.10654" lon="1.47522">
        <ele>17.44</ele>
        <time>2017-06-14T15:52:58Z</time>
      </trkpt>
      <trkpt lat="49.10631" lon="1.47541">
        <ele>17.92</ele>
        <time>2017-06-14T15:53:08Z</time>
      </trkpt>
      <trkpt lat="49.10593" lon="1.47575">
        <ele>17.44</ele>
        <time>2017-06-14T15:53:21Z</time>
      </trkpt>
      <trkpt lat="49.10586" lon="1.47582">
        <ele>18.4</ele>
        <time>2017-06-14T15:53:23Z</time>
      </trkpt>
      <trkpt lat="49.10549" lon="1.47626">
        <ele>17.92</ele>
        <time>2017-06-14T15:53:35Z</time>
      </trkpt>
      <trkpt lat="49.10542" lon="1.47635">
        <ele>17.44</ele>
        <time>2017-06-14T15:53:37Z</time>
      </trkpt>
      <trkpt lat="49.10533" lon="1.4765">
        <ele>18.4</ele>
        <time>2017-06-14T15:53:40Z</time>
      </trkpt>
      <trkpt lat="49.10515" lon="1.47677">
        <ele>17.92</ele>
        <time>2017-06-14T15:53:46Z</time>
      </trkpt>
      <trkpt lat="49.10475" lon="1.47724">
        <ele>18.4</ele>
        <time>2017-06-14T15:53:59Z</time>
      </trkpt>
      <trkpt lat="49.10436" lon="1.47762">
        <ele>18.88</ele>
        <time>2017-06-14T15:54:12Z</time>
      </trkpt>
      <trkpt lat="49.104" lon="1.47783">
        <ele>17.92</ele>
        <time>2017-06-14T15:54:24Z</time>
      </trkpt>
      <trkpt lat="49.10363" lon="1.47802">
        <ele>17.44</ele>
        <time>2017-06-14T15:54:35Z</time>
      </trkpt>
      <trkpt lat="49.10356" lon="1.47816">
        <ele>17.44</ele>
        <time>2017-06-14T15:54:39Z</time>
      </trkpt>
      <trkpt lat="49.10341" lon="1.47875">
        <ele>17.92</ele>
        <time>2017-06-14T15:54:50Z</time>
      </trkpt>
      <trkpt lat="49.10343" lon="1.47939">
        <ele>18.88</ele>
        <time>2017-06-14T15:55:01Z</time>
      </trkpt>
      <trkpt lat="49.10344" lon="1.47995">
        <ele>18.88</ele>
        <time>2017-06-14T15:55:09Z</time>
      </trkpt>
      <trkpt lat="49.10325" lon="1.48068">
        <ele>18.4</ele>
        <time>2017-06-14T15:55:23Z</time>
      </trkpt>
      <trkpt lat="49.10292" lon="1.48112">
        <ele>17.44</ele>
        <time>2017-06-14T15:55:36Z</time>
      </trkpt>
      <trkpt lat="49.10254" lon="1.48159">
        <ele>16.96</ele>
        <time>2017-06-14T15:55:49Z</time>
      </trkpt>
      <trkpt lat="49.10249" lon="1.48177">
        <ele>17.44</ele>
        <time>2017-06-14T15:55:52Z</time>
      </trkpt>
      <trkpt lat="49.10241" lon="1.48208">
        <ele>18.4</ele>
        <time>2017-06-14T15:55:57Z</time>
      </trkpt>
      <trkpt lat="49.10232" lon="1.48253">
        <ele>18.88</ele>
        <time>2017-06-14T15:56:06Z</time>
      </trkpt>
      <trkpt lat="49.10238" lon="1.48265">
        <ele>17.92</ele>
        <time>2017-06-14T15:56:10Z</time>
      </trkpt>
      <trkpt lat="49.10255" lon="1.48295">
        <ele>18.88</ele>
        <time>2017-06-14T15:56:18Z</time>
      </trkpt>
      <trkpt lat="49.1023" lon="1.4834">
        <ele>19.36</ele>
        <time>2017-06-14T15:56:29Z</time>
      </trkpt>
      <trkpt lat="49.10202" lon="1.48395">
        <ele>18.88</ele>
        <time>2017-06-14T15:56:42Z</time>
      </trkpt>
      <trkpt lat="49.10161" lon="1.48475">
        <ele>19.84</ele>
        <time>2017-06-14T15:56:58Z</time>
      </trkpt>
      <trkpt lat="49.10147" lon="1.48499">
        <ele>19.36</ele>
        <time>2017-06-14T15:57:03Z</time>
      </trkpt>
      <trkpt lat="49.10145" lon="1.48505">
        <ele>19.36</ele>
        <time>2017-06-14T15:57:04Z</time>
      </trkpt>
      <trkpt lat="49.10109" lon="1.48577">
        <ele>19.84</ele>
        <time>2017-06-14T15:57:18Z</time>
      </trkpt>
      <trkpt lat="49.10104" lon="1.48632">
        <ele>19.84</ele>
        <time>2017-06-14T15:57:29Z</time>
      </trkpt>
      <trkpt lat="49.10068" lon="1.48669">
        <ele>19.84</ele>
        <time>2017-06-14T15:57:40Z</time>
      </trkpt>
      <trkpt lat="49.10065" lon="1.48675">
        <ele>20.32</ele>
        <time>2017-06-14T15:57:41Z</time>
      </trkpt>
      <trkpt lat="49.10049" lon="1.487">
        <ele>20.32</ele>
        <time>2017-06-14T15:57:51Z</time>
      </trkpt>
      <trkpt lat="49.10047" lon="1.48698">
        <ele>19.84</ele>
        <time>2017-06-14T15:57:53Z</time>
      </trkpt>
      <trkpt lat="49.10046" lon="1.48697">
        <ele>19.36</ele>
        <time>2017-06-14T15:57:54Z</time>
      </trkpt>
      <trkpt lat="49.10045" lon="1.48696">
        <ele>19.84</ele>
        <time>2017-06-14T15:57:55Z</time>
      </trkpt>
      <trkpt lat="49.10043" lon="1.48695">
        <ele>19.84</ele>
        <time>2017-06-14T15:57:57Z</time>
      </trkpt>
      <trkpt lat="49.1004" lon="1.4869">
        <ele>20.32</ele>
        <time>2017-06-14T15:58:01Z</time>
      </trkpt>
      <trkpt lat="49.10022" lon="1.48674">
        <ele>18.88</ele>
        <time>2017-06-14T15:58:15Z</time>
      </trkpt>
      <trkpt lat="49.10018" lon="1.48675">
        <ele>18.88</ele>
        <time>2017-06-14T15:58:24Z</time>
      </trkpt>
      <trkpt lat="49.10011" lon="1.48675">
        <ele>19.84</ele>
        <time>2017-06-14T15:58:28Z</time>
      </trkpt>
      <trkpt lat="49.09974" lon="1.48674">
        <ele>18.4</ele>
        <time>2017-06-14T15:58:38Z</time>
      </trkpt>
      <trkpt lat="49.09932" lon="1.48716">
        <ele>18.88</ele>
        <time>2017-06-14T15:58:50Z</time>
      </trkpt>
      <trkpt lat="49.099" lon="1.48756">
        <ele>19.84</ele>
        <time>2017-06-14T15:59:01Z</time>
      </trkpt>
      <trkpt lat="49.09892" lon="1.4877">
        <ele>19.84</ele>
        <time>2017-06-14T15:59:04Z</time>
      </trkpt>
      <trkpt lat="49.09878" lon="1.48795">
        <ele>19.36</ele>
        <time>2017-06-14T15:59:09Z</time>
      </trkpt>
      <trkpt lat="49.09866" lon="1.48811">
        <ele>20.32</ele>
        <time>2017-06-14T15:59:13Z</time>
      </trkpt>
      <trkpt lat="49.09839" lon="1.48847">
        <ele>19.36</ele>
        <time>2017-06-14T15:59:25Z</time>
      </trkpt>
      <trkpt lat="49.09817" lon="1.48895">
        <ele>20.81</ele>
        <time>2017-06-14T15:59:38Z</time>
      </trkpt>
      <trkpt lat="49.09815" lon="1.48896">
        <ele>20.81</ele>
        <time>2017-06-14T15:59:39Z</time>
      </trkpt>
      <trkpt lat="49.09813" lon="1.48895">
        <ele>20.81</ele>
        <time>2017-06-14T15:59:40Z</time>
      </trkpt>
      <trkpt lat="49.09811" lon="1.48895">
        <ele>20.81</ele>
        <time>2017-06-14T15:59:41Z</time>
      </trkpt>
      <trkpt lat="49.0981" lon="1.48894">
        <ele>20.81</ele>
        <time>2017-06-14T15:59:42Z</time>
      </trkpt>
      <trkpt lat="49.09809" lon="1.48893">
        <ele>20.32</ele>
        <time>2017-06-14T15:59:43Z</time>
      </trkpt>
      <trkpt lat="49.09807" lon="1.48892">
        <ele>20.81</ele>
        <time>2017-06-14T15:59:44Z</time>
      </trkpt>
      <trkpt lat="49.09806" lon="1.48891">
        <ele>20.81</ele>
        <time>2017-06-14T15:59:45Z</time>
      </trkpt>
      <trkpt lat="49.09804" lon="1.48891">
        <ele>20.32</ele>
        <time>2017-06-14T15:59:46Z</time>
      </trkpt>
      <trkpt lat="49.09802" lon="1.4889">
        <ele>20.81</ele>
        <time>2017-06-14T15:59:47Z</time>
      </trkpt>
      <trkpt lat="49.098" lon="1.48889">
        <ele>20.81</ele>
        <time>2017-06-14T15:59:48Z</time>
      </trkpt>
      <trkpt lat="49.09759" lon="1.48879">
        <ele>20.32</ele>
        <time>2017-06-14T16:00:01Z</time>
      </trkpt>
      <trkpt lat="49.09756" lon="1.4888">
        <ele>21.29</ele>
        <time>2017-06-14T16:00:02Z</time>
      </trkpt>
      <trkpt lat="49.09735" lon="1.48866">
        <ele>19.36</ele>
        <time>2017-06-14T16:00:09Z</time>
      </trkpt>
      <trkpt lat="49.09667" lon="1.48877">
        <ele>18.88</ele>
        <time>2017-06-14T16:00:25Z</time>
      </trkpt>
      <trkpt lat="49.09643" lon="1.48898">
        <ele>17.92</ele>
        <time>2017-06-14T16:00:34Z</time>
      </trkpt>
      <trkpt lat="49.09609" lon="1.48971">
        <ele>17.92</ele>
        <time>2017-06-14T16:00:48Z</time>
      </trkpt>
      <trkpt lat="49.09597" lon="1.48994">
        <ele>17.44</ele>
        <time>2017-06-14T16:00:53Z</time>
      </trkpt>
      <trkpt lat="49.0957" lon="1.49059">
        <ele>17.92</ele>
        <time>2017-06-14T16:01:06Z</time>
      </trkpt>
      <trkpt lat="49.09583" lon="1.4908">
        <ele>18.4</ele>
        <time>2017-06-14T16:01:15Z</time>
      </trkpt>
      <trkpt lat="49.0961" lon="1.4913">
        <ele>18.4</ele>
        <time>2017-06-14T16:01:30Z</time>
      </trkpt>
    </trkseg>
  </trk>
</gpx>